Time,TemperatureF,DewpointF,PressureIn,WindDirection,WindDirectionDegrees,WindSpeedMPH,WindSpeedGustMPH,Humidity,HourlyPrecipIn,Conditions,Clouds,dailyrainin,SoftwareType,DateUTC
2013-01-06 00:00:00,21.9,18.4,30.17,NNW,347,0.0,0.0,86,0.00,,SKC,0.00,VWS V14.01,2013-01-06 05:00:00,
2013-01-06 00:01:00,21.9,18.4,30.17,NNW,347,0.0,0.0,86,0.00,,SKC,0.00,VWS V14.01,2013-01-06 05:01:00,
2013-01-06 00:05:00,22.1,18.6,30.17,NNW,347,0.0,0.0,86,0.00,,SKC,0.00,VWS V14.01,2013-01-06 05:05:00,
2013-01-06 00:06:00,22.1,18.6,30.17,NNW,347,0.0,0.0,86,0.00,,SKC,0.00,VWS V14.01,2013-01-06 05:06:00,
2013-01-06 00:07:00,22.1,18.6,30.17,NNW,347,0.0,0.0,86,0.00,,SKC,0.00,VWS V14.01,2013-01-06 05:07:00,
2013-01-06 00:10:00,22.2,18.7,30.17,NNW,347,0.0,0.0,86,0.00,,SKC,0.00,VWS V14.01,2013-01-06 05:10:00,
2013-01-06 00:11:00,22.2,18.7,30.17,NNW,347,0.0,0.0,86,0.00,,SKC,0.00,VWS V14.01,2013-01-06 05:11:00,
2013-01-06 00:12:00,22.2,18.7,30.17,NNW,347,0.0,0.0,86,0.00,,SKC,0.00,VWS V14.01,2013-01-06 05:12:00,
2013-01-06 00:15:00,22.2,18.7,30.15,NNW,347,0.0,0.0,86,0.00,,SKC,0.00,VWS V14.01,2013-01-06 05:15:00,
2013-01-06 00:16:00,22.2,18.7,30.15,NNW,347,0.0,0.0,86,0.00,,SKC,0.00,VWS V14.01,2013-01-06 05:16:00,
2013-01-06 00:17:00,22.4,18.9,30.15,NNW,347,0.0,0.0,86,0.00,,SKC,0.00,VWS V14.01,2013-01-06 05:17:00,
2013-01-06 00:20:00,22.4,18.9,30.15,NNW,347,0.0,0.0,86,0.00,,SKC,0.00,VWS V14.01,2013-01-06 05:20:00,
2013-01-06 00:21:00,22.4,18.9,30.15,NNW,347,0.0,0.0,86,0.00,,SKC,0.00,VWS V14.01,2013-01-06 05:21:00,
2013-01-06 00:22:00,22.4,18.9,30.15,NNW,347,0.0,0.0,86,0.00,,SKC,0.00,VWS V14.01,2013-01-06 05:22:00,
2013-01-06 00:25:00,22.4,18.9,30.15,NNW,347,0.0,0.0,86,0.00,,SKC,0.00,VWS V14.01,2013-01-06 05:25:00,
2013-01-06 00:26:00,22.4,18.9,30.15,NNW,347,0.0,0.0,86,0.00,,SKC,0.00,VWS V14.01,2013-01-06 05:26:00,
2013-01-06 00:27:00,22.4,18.9,30.15,NNW,347,0.0,0.0,86,0.00,,SKC,0.00,VWS V14.01,2013-01-06 05:27:00,
2013-01-06 00:28:00,22.4,18.9,30.15,NNW,347,0.0,0.0,86,0.00,,SKC,0.00,VWS V14.01,2013-01-06 05:28:00,
2013-01-06 00:30:00,22.5,19.0,30.15,NNW,347,0.0,0.0,86,0.00,,SKC,0.00,VWS V14.01,2013-01-06 05:30:00,
2013-01-06 00:32:00,22.5,19.0,30.15,NNW,347,0.0,0.0,86,0.00,,SKC,0.00,VWS V14.01,2013-01-06 05:32:00,
2013-01-06 00:33:00,22.5,19.0,30.15,NNW,347,0.0,0.0,86,0.00,,SKC,0.00,VWS V14.01,2013-01-06 05:33:00,
2013-01-06 00:35:00,22.7,19.1,30.15,NNW,347,0.0,0.0,86,0.00,,SKC,0.00,VWS V14.01,2013-01-06 05:35:00,
2013-01-06 00:37:00,22.7,19.1,30.15,NNW,347,0.0,0.0,86,0.00,,SKC,0.00,VWS V14.01,2013-01-06 05:37:00,
2013-01-06 00:38:00,22.7,19.1,30.15,NNW,347,0.0,0.0,86,0.00,,SKC,0.00,VWS V14.01,2013-01-06 05:38:00,
2013-01-06 00:40:00,22.7,19.1,30.15,NNW,347,0.0,0.0,86,0.00,,SKC,0.00,VWS V14.01,2013-01-06 05:40:00,
2013-01-06 00:42:00,22.9,19.4,30.15,NNW,347,0.0,0.0,86,0.00,,SKC,0.00,VWS V14.01,2013-01-06 05:42:00,
2013-01-06 00:43:00,22.9,19.4,30.15,NNW,347,0.0,0.0,86,0.00,,SKC,0.00,VWS V14.01,2013-01-06 05:43:00,
2013-01-06 00:44:00,22.9,19.4,30.15,NNW,347,0.0,0.0,86,0.00,,SKC,0.00,VWS V14.01,2013-01-06 05:44:00,
2013-01-06 00:45:00,22.9,19.4,30.15,NNW,347,0.0,0.0,86,0.00,,SKC,0.00,VWS V14.01,2013-01-06 05:45:00,
2013-01-06 00:48:00,22.9,19.4,30.15,NNW,347,0.0,0.0,86,0.00,,SKC,0.00,VWS V14.01,2013-01-06 05:48:00,
2013-01-06 00:49:00,22.9,19.4,30.15,NNW,347,0.0,0.0,86,0.00,,SKC,0.00,VWS V14.01,2013-01-06 05:49:00,
2013-01-06 00:50:00,22.9,19.4,30.15,NNW,347,0.0,0.0,86,0.00,,SKC,0.00,VWS V14.01,2013-01-06 05:50:00,
2013-01-06 00:53:00,23.0,19.5,30.15,NNW,347,0.0,0.0,86,0.00,,SKC,0.00,VWS V14.01,2013-01-06 05:53:00,
2013-01-06 00:54:00,23.0,19.5,30.15,NNW,347,0.0,0.0,86,0.00,,SKC,0.00,VWS V14.01,2013-01-06 05:54:00,
2013-01-06 00:55:00,23.0,19.4,30.15,NNW,347,0.0,0.0,86,0.00,,SKC,0.00,VWS V14.01,2013-01-06 05:55:00,
2013-01-06 00:58:00,23.0,19.5,30.15,NNW,347,0.0,0.0,86,0.00,,SKC,0.00,VWS V14.01,2013-01-06 05:58:00,
2013-01-06 00:59:00,23.0,19.5,30.15,NNW,347,0.0,0.0,86,0.00,,SKC,0.00,VWS V14.01,2013-01-06 05:59:00,
2013-01-06 01:00:00,25.6,19.4,30.19,NNW,346,0.0,0.0,77,0.00,,SKC,0.00,VWS V14.01,2013-01-06 06:00:00,
2013-01-06 01:03:00,23.2,19.6,30.15,NNW,347,0.0,0.0,86,0.00,,SKC,0.00,VWS V14.01,2013-01-06 06:03:00,
2013-01-06 01:04:00,23.2,19.6,30.15,NNW,347,0.0,0.0,86,0.00,,SKC,0.00,VWS V14.01,2013-01-06 06:04:00,
2013-01-06 01:05:00,26.0,19.2,30.19,NNW,346,0.0,0.0,75,0.00,,SKC,0.00,VWS V14.01,2013-01-06 06:05:00,
2013-01-06 01:08:00,23.3,19.7,30.15,North,349,0.0,0.0,86,0.00,,SKC,0.00,VWS V14.01,2013-01-06 06:08:00,
2013-01-06 01:09:00,23.3,19.7,30.15,NNW,347,0.0,0.0,86,0.00,,SKC,0.00,VWS V14.01,2013-01-06 06:09:00,
2013-01-06 01:10:00,23.3,19.7,30.15,NNW,347,0.0,0.0,86,0.00,,SKC,0.00,VWS V14.01,2013-01-06 06:10:00,
2013-01-06 01:13:00,23.3,19.7,30.17,NNW,347,0.0,0.0,86,0.00,,SKC,0.00,VWS V14.01,2013-01-06 06:13:00,
2013-01-06 01:14:00,23.5,19.9,30.17,NNW,347,0.0,0.0,86,0.00,,SKC,0.00,VWS V14.01,2013-01-06 06:14:00,
2013-01-06 01:15:00,23.5,19.9,30.17,NNW,347,0.0,0.0,86,0.00,,SKC,0.00,VWS V14.01,2013-01-06 06:15:00,
2013-01-06 01:19:00,23.5,19.7,30.17,NNW,347,0.0,0.0,85,0.00,,SKC,0.00,VWS V14.01,2013-01-06 06:19:00,
2013-01-06 01:20:00,23.5,19.7,30.17,NNW,347,0.0,0.0,85,0.00,,SKC,0.00,VWS V14.01,2013-01-06 06:20:00,
2013-01-06 01:21:00,23.5,19.7,30.17,NNW,347,0.0,0.0,85,0.00,,SKC,0.00,VWS V14.01,2013-01-06 06:21:00,
2013-01-06 01:24:00,23.5,19.7,30.17,NNW,347,0.0,0.0,85,0.00,,SKC,0.00,VWS V14.01,2013-01-06 06:24:00,
2013-01-06 01:25:00,23.6,19.8,30.17,NNW,347,0.0,0.0,85,0.00,,SKC,0.00,VWS V14.01,2013-01-06 06:25:00,
2013-01-06 01:27:00,23.6,19.8,30.17,NNW,347,0.0,0.0,85,0.00,,SKC,0.00,VWS V14.01,2013-01-06 06:27:00,
2013-01-06 01:29:00,23.6,19.8,30.17,NNW,347,0.0,0.0,85,0.00,,SKC,0.00,VWS V14.01,2013-01-06 06:29:00,
2013-01-06 01:30:00,23.6,19.8,30.17,NNW,347,0.0,0.0,85,0.00,,SKC,0.00,VWS V14.01,2013-01-06 06:30:00,
2013-01-06 01:31:00,23.6,19.8,30.17,NNW,347,0.0,0.0,85,0.00,,SKC,0.00,VWS V14.01,2013-01-06 06:31:00,
2013-01-06 01:32:00,23.8,20.0,30.17,NNW,347,0.0,0.0,85,0.00,,SKC,0.00,VWS V14.01,2013-01-06 06:32:00,
2013-01-06 01:34:00,23.8,20.0,30.17,NNW,347,0.0,0.0,85,0.00,,SKC,0.00,VWS V14.01,2013-01-06 06:34:00,
2013-01-06 01:35:00,23.8,20.0,30.17,NNW,347,0.0,0.0,85,0.00,,SKC,0.00,VWS V14.01,2013-01-06 06:35:00,
2013-01-06 01:36:00,23.8,20.0,30.17,NNW,347,0.0,0.0,85,0.00,,SKC,0.00,VWS V14.01,2013-01-06 06:36:00,
2013-01-06 01:37:00,23.8,20.0,30.17,NNW,347,0.0,0.0,85,0.00,,SKC,0.00,VWS V14.01,2013-01-06 06:37:00,
2013-01-06 01:39:00,23.8,20.0,30.17,NNW,347,0.0,0.0,85,0.00,,SKC,0.00,VWS V14.01,2013-01-06 06:39:00,
2013-01-06 01:40:00,23.8,20.0,30.17,NNW,347,0.0,0.0,85,0.00,,SKC,0.00,VWS V14.01,2013-01-06 06:40:00,
2013-01-06 01:41:00,23.8,20.0,30.17,NNW,347,0.0,0.0,85,0.00,,SKC,0.00,VWS V14.01,2013-01-06 06:41:00,
2013-01-06 01:42:00,23.8,20.0,30.17,NNW,347,0.0,0.0,85,0.00,,SKC,0.00,VWS V14.01,2013-01-06 06:42:00,
2013-01-06 01:44:00,23.9,20.1,30.18,NNW,347,0.0,0.0,85,0.00,,SKC,0.00,VWS V14.01,2013-01-06 06:44:00,
2013-01-06 01:45:00,23.9,20.1,30.18,NNW,347,0.0,0.0,85,0.00,,SKC,0.00,VWS V14.01,2013-01-06 06:45:00,
2013-01-06 01:46:00,23.9,20.1,30.18,NNW,347,0.0,0.0,85,0.00,,SKC,0.00,VWS V14.01,2013-01-06 06:46:00,
2013-01-06 01:48:00,24.1,20.2,30.18,NNW,347,0.0,0.0,85,0.00,,SKC,0.00,VWS V14.01,2013-01-06 06:48:00,
2013-01-06 01:49:00,24.2,20.1,30.18,NNW,347,0.0,0.0,84,0.00,,SKC,0.00,VWS V14.01,2013-01-06 06:49:00,
2013-01-06 01:50:00,24.2,20.1,30.18,NNW,347,0.0,0.0,84,0.00,,SKC,0.00,VWS V14.01,2013-01-06 06:50:00,
2013-01-06 01:51:00,24.5,19.8,30.18,NNW,347,0.0,0.0,82,0.00,,SKC,0.00,VWS V14.01,2013-01-06 06:51:00,
2013-01-06 01:53:00,24.7,20.0,30.18,NNW,346,0.0,0.0,82,0.00,,SKC,0.00,VWS V14.01,2013-01-06 06:53:00,
2013-01-06 01:54:00,24.8,20.1,30.18,NNW,347,0.0,0.0,82,0.00,,SKC,0.00,VWS V14.01,2013-01-06 06:54:00,
2013-01-06 01:55:00,24.8,20.1,30.18,NNW,347,0.0,0.0,82,0.00,,SKC,0.00,VWS V14.01,2013-01-06 06:55:00,
2013-01-06 01:57:00,25.1,19.5,30.18,NNW,347,0.0,0.0,79,0.00,,SKC,0.00,VWS V14.01,2013-01-06 06:57:00,
2013-01-06 01:58:00,25.4,19.8,30.18,NNW,347,0.0,0.0,79,0.00,,SKC,0.00,VWS V14.01,2013-01-06 06:58:00,
2013-01-06 01:59:00,25.4,19.2,30.19,NNW,346,0.0,0.0,77,0.00,,SKC,0.00,VWS V14.01,2013-01-06 06:59:00,
2013-01-06 02:00:00,25.6,19.4,30.19,NNW,346,0.0,0.0,77,0.00,,SKC,0.00,VWS V14.01,2013-01-06 07:00:00,
2013-01-06 02:02:00,25.7,18.9,30.19,NNW,347,0.0,0.0,75,0.00,,SKC,0.00,VWS V14.01,2013-01-06 07:02:00,
2013-01-06 02:03:00,25.8,19.0,30.19,NNW,347,0.0,0.0,75,0.00,,SKC,0.00,VWS V14.01,2013-01-06 07:03:00,
2013-01-06 02:04:00,26.0,19.2,30.19,NNW,347,0.0,0.0,75,0.00,,SKC,0.00,VWS V14.01,2013-01-06 07:04:00,
2013-01-06 02:05:00,26.0,18.5,30.19,NNW,346,0.0,0.0,73,0.00,,SKC,0.00,VWS V14.01,2013-01-06 07:05:00,
2013-01-06 02:07:00,26.1,18.6,30.19,NNW,347,0.0,0.0,73,0.00,,SKC,0.00,VWS V14.01,2013-01-06 07:07:00,
2013-01-06 02:08:00,26.3,18.2,30.19,NNW,347,0.0,0.0,71,0.00,,SKC,0.00,VWS V14.01,2013-01-06 07:08:00,
2013-01-06 02:09:00,26.3,18.2,30.19,NNW,347,0.0,0.0,71,0.00,,SKC,0.00,VWS V14.01,2013-01-06 07:09:00,
2013-01-06 02:10:00,26.3,18.2,30.19,NNW,347,0.0,0.0,71,0.00,,SKC,0.00,VWS V14.01,2013-01-06 07:10:00,
2013-01-06 02:12:00,26.4,18.0,30.19,NNW,347,0.0,0.0,70,0.00,,SKC,0.00,VWS V14.01,2013-01-06 07:12:00,
2013-01-06 02:14:00,26.6,18.1,30.19,NNW,347,0.0,0.0,70,0.00,,SKC,0.00,VWS V14.01,2013-01-06 07:14:00,
2013-01-06 02:15:00,26.6,18.1,30.19,NNW,346,0.0,0.0,70,0.00,,SKC,0.00,VWS V14.01,2013-01-06 07:15:00,
2013-01-06 02:17:00,26.7,17.9,30.19,NNW,347,0.0,0.0,69,0.00,,SKC,0.00,VWS V14.01,2013-01-06 07:17:00,
2013-01-06 02:19:00,26.9,18.1,30.19,NNW,347,0.0,0.0,69,0.00,,SKC,0.00,VWS V14.01,2013-01-06 07:19:00,
2013-01-06 02:20:00,26.9,18.1,30.19,NNW,347,0.0,0.0,69,0.00,,SKC,0.00,VWS V14.01,2013-01-06 07:20:00,
2013-01-06 02:23:00,27.0,18.2,30.19,NNW,347,0.0,0.0,69,0.00,,SKC,0.00,VWS V14.01,2013-01-06 07:23:00,
2013-01-06 02:24:00,27.0,18.5,30.19,NNW,347,0.0,0.0,70,0.00,,SKC,0.00,VWS V14.01,2013-01-06 07:24:00,
2013-01-06 02:25:00,27.0,18.5,30.19,NNW,346,0.0,0.0,70,0.00,,SKC,0.00,VWS V14.01,2013-01-06 07:25:00,
2013-01-06 02:28:00,27.0,18.9,30.19,NNW,347,0.0,0.0,71,0.00,,SKC,0.00,VWS V14.01,2013-01-06 07:28:00,
2013-01-06 02:29:00,27.0,18.9,30.18,NNW,347,0.0,0.0,71,0.00,,SKC,0.00,VWS V14.01,2013-01-06 07:29:00,
2013-01-06 02:30:00,27.0,18.9,30.18,NNW,346,0.0,0.0,71,0.00,,SKC,0.00,VWS V14.01,2013-01-06 07:30:00,
2013-01-06 02:33:00,27.0,19.2,30.18,NNW,346,0.0,0.0,72,0.00,,SKC,0.00,VWS V14.01,2013-01-06 07:33:00,
2013-01-06 02:34:00,27.0,19.2,30.18,NNW,346,0.0,0.0,72,0.00,,SKC,0.00,VWS V14.01,2013-01-06 07:34:00,
2013-01-06 02:35:00,26.9,19.4,30.18,NNW,347,0.0,0.0,73,0.00,,SKC,0.00,VWS V14.01,2013-01-06 07:35:00,
2013-01-06 02:36:00,26.9,19.4,30.18,NNW,347,0.0,0.0,73,0.00,,SKC,0.00,VWS V14.01,2013-01-06 07:36:00,
2013-01-06 02:38:00,26.9,19.7,30.18,NNW,346,0.0,0.0,74,0.00,,SKC,0.00,VWS V14.01,2013-01-06 07:38:00,
2013-01-06 02:39:00,26.9,19.7,30.18,NNW,346,0.0,0.0,74,0.00,,SKC,0.00,VWS V14.01,2013-01-06 07:39:00,
2013-01-06 02:40:00,26.7,19.5,30.18,NNW,347,0.0,0.0,74,0.00,,SKC,0.00,VWS V14.01,2013-01-06 07:40:00,
2013-01-06 02:41:00,26.7,19.5,30.18,NNW,346,0.0,0.0,74,0.00,,SKC,0.00,VWS V14.01,2013-01-06 07:41:00,
2013-01-06 02:43:00,26.7,19.5,30.18,NNW,346,0.0,0.0,74,0.00,,SKC,0.00,VWS V14.01,2013-01-06 07:43:00,
2013-01-06 02:44:00,26.7,19.5,30.16,NNW,347,0.0,0.0,74,0.00,,SKC,0.00,VWS V14.01,2013-01-06 07:44:00,
2013-01-06 02:45:00,26.7,19.5,30.16,NNW,347,0.0,0.0,74,0.00,,SKC,0.00,VWS V14.01,2013-01-06 07:45:00,
2013-01-06 02:46:00,26.7,19.5,30.16,NNW,347,0.0,0.0,74,0.00,,SKC,0.00,VWS V14.01,2013-01-06 07:46:00,
2013-01-06 02:48:00,26.6,19.4,30.16,NNW,346,0.0,0.0,74,0.00,,SKC,0.00,VWS V14.01,2013-01-06 07:48:00,
2013-01-06 02:50:00,26.6,19.4,30.16,NNW,347,0.0,0.0,74,0.00,,SKC,0.00,VWS V14.01,2013-01-06 07:50:00,
2013-01-06 02:51:00,26.6,19.4,30.16,NNW,346,0.0,0.0,74,0.00,,SKC,0.00,VWS V14.01,2013-01-06 07:51:00,
2013-01-06 02:53:00,26.6,19.8,30.16,North,349,0.0,0.0,75,0.00,,SKC,0.00,VWS V14.01,2013-01-06 07:53:00,
2013-01-06 02:55:00,26.6,19.8,30.16,NNW,346,0.0,0.0,75,0.00,,SKC,0.00,VWS V14.01,2013-01-06 07:55:00,
2013-01-06 02:56:00,26.6,19.8,30.16,NNW,346,0.0,0.0,75,0.00,,SKC,0.00,VWS V14.01,2013-01-06 07:56:00,
2013-01-06 02:59:00,26.6,19.8,30.15,NNW,346,0.0,0.0,75,0.00,,SKC,0.00,VWS V14.01,2013-01-06 07:59:00,
2013-01-06 03:00:00,26.6,20.1,30.15,NNW,346,0.0,0.0,76,0.00,,SKC,0.00,VWS V14.01,2013-01-06 08:00:00,
2013-01-06 03:01:00,26.6,20.1,30.15,NNW,346,0.0,0.0,76,0.00,,SKC,0.00,VWS V14.01,2013-01-06 08:01:00,
2013-01-06 03:04:00,26.6,20.1,30.15,NNW,346,0.0,0.0,76,0.00,,SKC,0.00,VWS V14.01,2013-01-06 08:04:00,
2013-01-06 03:05:00,26.6,20.1,30.15,NNW,347,0.0,0.0,76,0.00,,SKC,0.00,VWS V14.01,2013-01-06 08:05:00,
2013-01-06 03:06:00,26.6,20.1,30.15,NNW,347,0.0,0.0,76,0.00,,SKC,0.00,VWS V14.01,2013-01-06 08:06:00,
2013-01-06 03:09:00,26.6,20.4,30.15,NNW,346,0.0,0.0,77,0.00,,SKC,0.00,VWS V14.01,2013-01-06 08:09:00,
2013-01-06 03:10:00,26.6,20.4,30.15,NNW,346,0.0,0.0,77,0.00,,SKC,0.00,VWS V14.01,2013-01-06 08:10:00,
2013-01-06 03:11:00,26.6,20.7,30.15,NNW,346,0.0,0.0,78,0.00,,SKC,0.00,VWS V14.01,2013-01-06 08:11:00,
2013-01-06 03:12:00,26.6,20.7,30.15,NNW,346,0.0,0.0,78,0.00,,SKC,0.00,VWS V14.01,2013-01-06 08:12:00,
2013-01-06 03:15:00,26.6,20.7,30.15,NNW,346,0.0,0.0,78,0.00,,SKC,0.00,VWS V14.01,2013-01-06 08:15:00,
2013-01-06 03:16:00,26.6,20.7,30.15,NNW,346,0.0,0.0,78,0.00,,SKC,0.00,VWS V14.01,2013-01-06 08:16:00,
2013-01-06 03:17:00,26.6,20.7,30.15,NNW,347,0.0,0.0,78,0.00,,SKC,0.00,VWS V14.01,2013-01-06 08:17:00,
2013-01-06 03:20:00,26.6,20.7,30.15,NNW,346,0.0,0.0,78,0.00,,SKC,0.00,VWS V14.01,2013-01-06 08:20:00,
2013-01-06 03:21:00,26.6,20.7,30.15,NNW,346,0.0,0.0,78,0.00,,SKC,0.00,VWS V14.01,2013-01-06 08:21:00,
2013-01-06 03:22:00,26.6,20.7,30.15,NNW,346,0.0,0.0,78,0.00,,SKC,0.00,VWS V14.01,2013-01-06 08:22:00,
2013-01-06 03:25:00,26.4,20.5,30.15,NNW,347,0.0,0.0,78,0.00,,SKC,0.00,VWS V14.01,2013-01-06 08:25:00,
2013-01-06 03:26:00,26.4,20.5,30.15,NNW,346,0.0,0.0,78,0.00,,SKC,0.00,VWS V14.01,2013-01-06 08:26:00,
2013-01-06 03:27:00,26.4,20.5,30.15,NNW,346,0.0,0.0,78,0.00,,SKC,0.00,VWS V14.01,2013-01-06 08:27:00,
2013-01-06 03:30:00,26.4,20.5,30.13,NNW,346,0.0,0.0,78,0.00,,SKC,0.00,VWS V14.01,2013-01-06 08:30:00,
2013-01-06 03:31:00,26.4,20.5,30.13,NNW,347,0.0,0.0,78,0.00,,SKC,0.00,VWS V14.01,2013-01-06 08:31:00,
2013-01-06 03:32:00,26.4,20.5,30.13,NNW,347,0.0,0.0,78,0.00,,SKC,0.00,VWS V14.01,2013-01-06 08:32:00,
2013-01-06 03:33:00,26.4,20.5,30.13,NNW,346,0.0,0.0,78,0.00,,SKC,0.00,VWS V14.01,2013-01-06 08:33:00,
2013-01-06 03:35:00,26.4,20.8,30.13,NNW,346,0.0,0.0,79,0.00,,SKC,0.00,VWS V14.01,2013-01-06 08:35:00,
2013-01-06 03:37:00,26.4,20.8,30.13,NNW,346,0.0,0.0,79,0.00,,SKC,0.00,VWS V14.01,2013-01-06 08:37:00,
2013-01-06 03:38:00,26.4,20.8,30.13,NNW,346,0.0,0.0,79,0.00,,SKC,0.00,VWS V14.01,2013-01-06 08:38:00,
2013-01-06 03:40:00,26.4,20.8,30.13,NNW,346,0.0,0.0,79,0.00,,SKC,0.00,VWS V14.01,2013-01-06 08:40:00,
2013-01-06 03:42:00,26.6,21.0,30.13,NNW,346,0.0,0.0,79,0.00,,SKC,0.00,VWS V14.01,2013-01-06 08:42:00,
2013-01-06 03:43:00,26.6,21.0,30.13,NNW,346,0.0,0.0,79,0.00,,SKC,0.00,VWS V14.01,2013-01-06 08:43:00,
2013-01-06 03:45:00,26.6,21.3,30.13,NNW,346,0.0,0.0,80,0.00,,SKC,0.00,VWS V14.01,2013-01-06 08:45:00,
2013-01-06 03:47:00,26.6,21.0,30.13,NNW,347,0.0,0.0,79,0.00,,SKC,0.00,VWS V14.01,2013-01-06 08:47:00,
2013-01-06 03:48:00,26.6,21.0,30.13,NNW,346,0.0,0.0,79,0.00,,SKC,0.00,VWS V14.01,2013-01-06 08:48:00,
2013-01-06 03:50:00,26.6,21.0,30.13,NNW,346,0.0,0.0,79,0.00,,SKC,0.00,VWS V14.01,2013-01-06 08:50:00,
2013-01-06 03:52:00,26.6,21.0,30.13,NNW,346,0.0,0.0,79,0.00,,SKC,0.00,VWS V14.01,2013-01-06 08:52:00,
2013-01-06 03:53:00,26.6,20.7,30.13,NNW,346,0.0,0.0,78,0.00,,SKC,0.00,VWS V14.01,2013-01-06 08:53:00,
2013-01-06 03:54:00,26.6,20.7,30.13,NNW,346,0.0,0.0,78,0.00,,SKC,0.00,VWS V14.01,2013-01-06 08:54:00,
2013-01-06 03:55:00,26.6,20.7,30.13,NNW,346,0.0,0.0,78,0.00,,SKC,0.00,VWS V14.01,2013-01-06 08:55:00,
2013-01-06 03:57:00,26.6,20.7,30.13,NNW,346,0.0,0.0,78,0.00,,SKC,0.00,VWS V14.01,2013-01-06 08:57:00,
2013-01-06 03:58:00,26.6,20.7,30.13,NNW,346,0.0,0.0,78,0.00,,SKC,0.00,VWS V14.01,2013-01-06 08:58:00,
2013-01-06 03:59:00,26.6,20.7,30.12,NNW,346,0.0,0.0,78,0.00,,SKC,0.00,VWS V14.01,2013-01-06 08:59:00,
2013-01-06 04:00:00,26.6,20.7,30.12,NNW,346,0.0,0.0,78,0.00,,SKC,0.00,VWS V14.01,2013-01-06 09:00:00,
2013-01-06 04:03:00,26.6,20.7,30.12,NNW,346,0.0,0.0,78,0.00,,SKC,0.00,VWS V14.01,2013-01-06 09:03:00,
2013-01-06 04:04:00,26.6,20.7,30.12,NNW,347,0.0,0.0,78,0.00,,SKC,0.00,VWS V14.01,2013-01-06 09:04:00,
2013-01-06 04:05:00,26.6,20.7,30.12,NNW,346,0.0,0.0,78,0.00,,SKC,0.00,VWS V14.01,2013-01-06 09:05:00,
2013-01-06 04:08:00,26.6,20.7,30.12,NNW,346,0.0,0.0,78,0.00,,SKC,0.00,VWS V14.01,2013-01-06 09:08:00,
2013-01-06 04:09:00,26.6,20.7,30.12,NNW,346,0.0,0.0,78,0.00,,SKC,0.00,VWS V14.01,2013-01-06 09:09:00,
2013-01-06 04:10:00,26.6,20.7,30.12,NNW,347,0.0,0.0,78,0.00,,SKC,0.00,VWS V14.01,2013-01-06 09:10:00,
2013-01-06 04:13:00,26.6,20.7,30.12,NNW,347,0.0,0.0,78,0.00,,SKC,0.00,VWS V14.01,2013-01-06 09:13:00,
2013-01-06 04:14:00,26.6,20.7,30.11,NNW,347,0.0,0.0,78,0.00,,SKC,0.00,VWS V14.01,2013-01-06 09:14:00,
2013-01-06 04:15:00,26.6,20.7,30.11,NNW,346,0.0,0.0,78,0.00,,SKC,0.00,VWS V14.01,2013-01-06 09:15:00,
2013-01-06 04:18:00,26.6,20.7,30.11,North,349,0.0,0.0,78,0.00,,SKC,0.00,VWS V14.01,2013-01-06 09:18:00,
2013-01-06 04:19:00,26.6,20.7,30.11,NNW,346,0.0,0.0,78,0.00,,SKC,0.00,VWS V14.01,2013-01-06 09:19:00,
2013-01-06 04:20:00,26.6,20.7,30.11,NNW,347,0.0,0.0,78,0.00,,SKC,0.00,VWS V14.01,2013-01-06 09:20:00,
2013-01-06 04:23:00,26.6,20.7,30.11,NNW,346,0.0,0.0,78,0.00,,SKC,0.00,VWS V14.01,2013-01-06 09:23:00,
2013-01-06 04:24:00,26.6,20.7,30.11,NNW,347,0.0,0.0,78,0.00,,SKC,0.00,VWS V14.01,2013-01-06 09:24:00,
2013-01-06 04:25:00,26.6,20.7,30.11,NNW,346,0.0,0.0,78,0.00,,SKC,0.00,VWS V14.01,2013-01-06 09:25:00,
2013-01-06 04:29:00,26.6,20.7,30.10,NNW,346,0.0,0.0,78,0.00,,SKC,0.00,VWS V14.01,2013-01-06 09:29:00,
2013-01-06 04:30:00,26.6,20.7,30.10,NNW,346,0.0,0.0,78,0.00,,SKC,0.00,VWS V14.01,2013-01-06 09:30:00,
2013-01-06 04:31:00,26.6,20.7,30.10,NNW,346,0.0,0.0,78,0.00,,SKC,0.00,VWS V14.01,2013-01-06 09:31:00,
2013-01-06 04:34:00,26.7,21.1,30.10,NNW,346,0.0,0.0,79,0.00,,SKC,0.00,VWS V14.01,2013-01-06 09:34:00,
2013-01-06 04:35:00,26.7,21.1,30.10,NNW,347,0.0,0.0,79,0.00,,SKC,0.00,VWS V14.01,2013-01-06 09:35:00,
2013-01-06 04:36:00,26.7,21.1,30.10,NNW,347,0.0,0.0,79,0.00,,SKC,0.00,VWS V14.01,2013-01-06 09:36:00,
2013-01-06 04:39:00,26.7,21.1,30.10,NNW,347,0.0,0.0,79,0.00,,SKC,0.00,VWS V14.01,2013-01-06 09:39:00,
2013-01-06 04:40:00,26.7,21.1,30.10,NNW,346,0.0,0.0,79,0.00,,SKC,0.00,VWS V14.01,2013-01-06 09:40:00,
2013-01-06 04:41:00,26.9,21.3,30.10,NNW,346,0.0,0.0,79,0.00,,SKC,0.00,VWS V14.01,2013-01-06 09:41:00,
2013-01-06 04:44:00,26.9,21.3,30.10,NNW,346,0.0,0.0,79,0.00,,SKC,0.00,VWS V14.01,2013-01-06 09:44:00,
2013-01-06 04:45:00,26.9,21.3,30.10,NNW,346,0.0,0.0,79,0.00,,SKC,0.00,VWS V14.01,2013-01-06 09:45:00,
2013-01-06 04:47:00,27.0,21.1,30.10,NNW,347,0.0,0.0,78,0.00,,SKC,0.00,VWS V14.01,2013-01-06 09:47:00,
2013-01-06 04:49:00,27.2,21.0,30.10,NNW,346,0.0,0.0,77,0.00,,SKC,0.00,VWS V14.01,2013-01-06 09:49:00,
2013-01-06 04:50:00,27.2,21.0,30.10,NNW,346,0.0,0.0,77,0.00,,SKC,0.00,VWS V14.01,2013-01-06 09:50:00,
2013-01-06 04:52:00,27.5,21.2,30.10,NNW,346,0.0,0.0,77,0.00,,SKC,0.00,VWS V14.01,2013-01-06 09:52:00,
2013-01-06 04:55:00,27.6,21.4,30.10,NNW,346,0.0,0.0,77,0.00,,SKC,0.00,VWS V14.01,2013-01-06 09:55:00,
2013-01-06 04:56:00,27.6,21.4,30.10,NNW,347,0.0,0.0,77,0.00,,SKC,0.00,VWS V14.01,2013-01-06 09:56:00,
2013-01-06 04:58:00,27.8,21.5,30.10,NNW,346,0.0,0.0,77,0.00,,SKC,0.00,VWS V14.01,2013-01-06 09:58:00,
2013-01-06 05:00:00,27.8,21.5,30.10,NNW,346,0.0,0.0,77,0.00,,SKC,0.00,VWS V14.01,2013-01-06 10:00:00,
2013-01-06 05:01:00,27.9,21.6,30.10,NNW,346,0.0,0.0,77,0.00,,SKC,0.00,VWS V14.01,2013-01-06 10:01:00,
2013-01-06 05:03:00,27.9,21.6,30.10,NNW,347,0.0,0.0,77,0.00,,SKC,0.00,VWS V14.01,2013-01-06 10:03:00,
2013-01-06 05:05:00,27.9,21.6,30.10,NNW,346,0.0,0.0,77,0.00,,SKC,0.00,VWS V14.01,2013-01-06 10:05:00,
2013-01-06 05:06:00,27.9,21.9,30.10,NNW,346,0.0,0.0,78,0.00,,SKC,0.00,VWS V14.01,2013-01-06 10:06:00,
2013-01-06 05:09:00,28.1,22.1,30.10,North,349,0.0,0.0,78,0.00,,SKC,0.00,VWS V14.01,2013-01-06 10:09:00,
2013-01-06 05:10:00,28.1,22.1,30.10,NNW,346,0.0,0.0,78,0.00,,SKC,0.00,VWS V14.01,2013-01-06 10:10:00,
2013-01-06 05:11:00,28.1,22.4,30.10,NNW,346,0.0,0.0,79,0.00,,SKC,0.00,VWS V14.01,2013-01-06 10:11:00,
2013-01-06 05:14:00,27.9,22.5,30.10,NNW,347,0.0,0.0,80,0.00,,SKC,0.00,VWS V14.01,2013-01-06 10:14:00,
2013-01-06 05:15:00,27.9,22.8,30.10,NNW,346,0.0,0.0,81,0.00,,SKC,0.00,VWS V14.01,2013-01-06 10:15:00,
2013-01-06 05:16:00,27.9,22.8,30.10,NNW,347,0.0,0.0,81,0.00,,SKC,0.00,VWS V14.01,2013-01-06 10:16:00,
2013-01-06 05:19:00,27.9,22.8,30.10,NNW,346,0.0,0.0,81,0.00,,SKC,0.00,VWS V14.01,2013-01-06 10:19:00,
2013-01-06 05:20:00,27.9,22.8,30.10,NNW,346,0.0,0.0,81,0.00,,SKC,0.00,VWS V14.01,2013-01-06 10:20:00,
2013-01-06 05:21:00,27.9,22.8,30.10,NNW,346,0.0,0.0,81,0.00,,SKC,0.00,VWS V14.01,2013-01-06 10:21:00,
2013-01-06 05:22:00,27.9,22.8,30.10,NNW,347,0.0,0.0,81,0.00,,SKC,0.00,VWS V14.01,2013-01-06 10:22:00,
2013-01-06 05:24:00,27.9,22.8,30.10,NNW,346,0.0,0.0,81,0.00,,SKC,0.00,VWS V14.01,2013-01-06 10:24:00,
2013-01-06 05:25:00,27.8,23.0,30.10,NNW,346,0.0,0.0,82,0.00,,SKC,0.00,VWS V14.01,2013-01-06 10:25:00,
2013-01-06 05:28:00,27.8,23.0,30.10,NNW,346,0.0,0.0,82,0.00,,SKC,0.00,VWS V14.01,2013-01-06 10:28:00,
2013-01-06 05:29:00,27.8,23.3,30.09,NNW,347,0.0,0.0,83,0.00,,SKC,0.00,VWS V14.01,2013-01-06 10:29:00,
2013-01-06 05:30:00,27.8,23.3,30.09,NNW,347,0.0,0.0,83,0.00,,SKC,0.00,VWS V14.01,2013-01-06 10:30:00,
2013-01-06 05:31:00,27.8,23.3,30.09,NNW,346,0.0,0.0,83,0.00,,SKC,0.00,VWS V14.01,2013-01-06 10:31:00,
2013-01-06 05:33:00,27.8,23.3,30.09,NNW,346,0.0,0.0,83,0.00,,SKC,0.00,VWS V14.01,2013-01-06 10:33:00,
2013-01-06 05:34:00,27.8,23.3,30.09,NNW,346,0.0,0.0,83,0.00,,SKC,0.00,VWS V14.01,2013-01-06 10:34:00,
2013-01-06 05:35:00,27.8,23.3,30.09,NNW,346,0.0,0.0,83,0.00,,SKC,0.00,VWS V14.01,2013-01-06 10:35:00,
2013-01-06 05:36:00,27.8,23.3,30.09,NNW,346,0.0,0.0,83,0.00,,SKC,0.00,VWS V14.01,2013-01-06 10:36:00,
2013-01-06 05:39:00,27.8,23.6,30.09,NNW,346,0.0,0.0,84,0.00,,SKC,0.00,VWS V14.01,2013-01-06 10:39:00,
2013-01-06 05:40:00,27.8,23.6,30.09,NNW,346,0.0,0.0,84,0.00,,SKC,0.00,VWS V14.01,2013-01-06 10:40:00,
2013-01-06 05:41:00,27.8,23.6,30.09,NNW,346,0.0,0.0,84,0.00,,SKC,0.00,VWS V14.01,2013-01-06 10:41:00,
2013-01-06 05:44:00,27.8,23.6,30.08,NNW,346,0.0,0.0,84,0.00,,SKC,0.00,VWS V14.01,2013-01-06 10:44:00,
2013-01-06 05:45:00,27.8,23.6,30.08,NNW,346,0.0,0.0,84,0.00,,SKC,0.00,VWS V14.01,2013-01-06 10:45:00,
2013-01-06 05:46:00,27.8,23.6,30.08,NNW,346,0.0,0.0,84,0.00,,SKC,0.00,VWS V14.01,2013-01-06 10:46:00,
2013-01-06 05:49:00,27.6,23.4,30.08,NNW,347,0.0,0.0,84,0.00,,SKC,0.00,VWS V14.01,2013-01-06 10:49:00,
2013-01-06 05:50:00,27.6,23.4,30.08,NNW,347,0.0,0.0,84,0.00,,SKC,0.00,VWS V14.01,2013-01-06 10:50:00,
2013-01-06 05:52:00,27.6,23.4,30.08,North,349,0.0,0.0,84,0.00,,SKC,0.00,VWS V14.01,2013-01-06 10:52:00,
2013-01-06 05:54:00,27.6,23.4,30.08,NNW,346,0.0,0.0,84,0.00,,SKC,0.00,VWS V14.01,2013-01-06 10:54:00,
2013-01-06 05:55:00,27.6,23.4,30.08,NNW,346,0.0,0.0,84,0.00,,SKC,0.00,VWS V14.01,2013-01-06 10:55:00,
2013-01-06 05:57:00,27.6,23.4,30.08,NNW,346,0.0,0.0,84,0.00,,SKC,0.00,VWS V14.01,2013-01-06 10:57:00,
2013-01-06 05:59:00,27.5,23.6,30.07,NNW,346,0.0,0.0,85,0.00,,SKC,0.00,VWS V14.01,2013-01-06 10:59:00,
2013-01-06 06:00:00,27.5,23.6,30.07,NNW,346,0.0,0.0,85,0.00,,SKC,0.00,VWS V14.01,2013-01-06 11:00:00,
2013-01-06 06:02:00,27.5,23.6,30.07,NNW,346,0.0,1.0,85,0.00,,SKC,0.00,VWS V14.01,2013-01-06 11:02:00,
2013-01-06 06:04:00,27.5,23.6,30.07,NNW,346,0.0,0.0,85,0.00,,SKC,0.00,VWS V14.01,2013-01-06 11:04:00,
2013-01-06 06:05:00,27.5,23.6,30.07,NNW,346,0.0,0.0,85,0.00,,SKC,0.00,VWS V14.01,2013-01-06 11:05:00,
2013-01-06 06:07:00,27.3,23.7,30.07,NNW,346,0.0,0.0,86,0.00,,SKC,0.00,VWS V14.01,2013-01-06 11:07:00,
2013-01-06 06:10:00,27.3,23.7,30.07,NNW,346,0.0,0.0,86,0.00,,SKC,0.00,VWS V14.01,2013-01-06 11:10:00,
2013-01-06 06:12:00,27.3,23.7,30.07,NNW,346,0.0,0.0,86,0.00,,SKC,0.00,VWS V14.01,2013-01-06 11:12:00,
2013-01-06 06:15:00,27.3,23.7,30.07,NNW,346,0.0,0.0,86,0.00,,SKC,0.00,VWS V14.01,2013-01-06 11:15:00,
2013-01-06 06:17:00,27.2,23.6,30.07,NNW,346,0.0,1.0,86,0.00,,SKC,0.00,VWS V14.01,2013-01-06 11:17:00,
2013-01-06 06:20:00,27.2,23.9,30.07,NNW,346,0.0,0.0,87,0.00,,SKC,0.00,VWS V14.01,2013-01-06 11:20:00,
2013-01-06 06:21:00,27.2,23.9,30.07,NNW,346,0.0,0.0,87,0.00,,SKC,0.00,VWS V14.01,2013-01-06 11:21:00,
2013-01-06 06:23:00,27.2,23.9,30.07,NNW,347,0.0,0.0,87,0.00,,SKC,0.00,VWS V14.01,2013-01-06 11:23:00,
2013-01-06 06:25:00,27.2,23.9,30.07,NNW,346,0.0,0.0,87,0.00,,SKC,0.00,VWS V14.01,2013-01-06 11:25:00,
2013-01-06 06:26:00,27.2,23.9,30.07,NNW,346,0.0,0.0,87,0.00,,SKC,0.00,VWS V14.01,2013-01-06 11:26:00,
2013-01-06 06:28:00,27.2,23.9,30.07,NNW,346,0.0,0.0,87,0.00,,SKC,0.00,VWS V14.01,2013-01-06 11:28:00,
2013-01-06 06:30:00,27.2,23.9,30.07,NNW,346,0.0,0.0,87,0.00,,SKC,0.00,VWS V14.01,2013-01-06 11:30:00,
2013-01-06 06:31:00,27.2,23.9,30.07,NNW,346,1.0,1.0,87,0.00,,SKC,0.00,VWS V14.01,2013-01-06 11:31:00,
2013-01-06 06:33:00,27.2,23.9,30.07,NNW,346,0.0,1.0,87,0.00,,SKC,0.00,VWS V14.01,2013-01-06 11:33:00,
2013-01-06 06:35:00,27.2,24.1,30.07,NNW,346,0.0,1.0,88,0.00,,SKC,0.00,VWS V14.01,2013-01-06 11:35:00,
2013-01-06 06:36:00,27.2,24.1,30.07,NNW,346,0.0,0.0,88,0.00,,SKC,0.00,VWS V14.01,2013-01-06 11:36:00,
2013-01-06 06:37:00,27.2,24.1,30.07,NNW,346,0.0,0.0,88,0.00,,SKC,0.00,VWS V14.01,2013-01-06 11:37:00,
2013-01-06 06:38:00,27.3,24.2,30.07,NNW,346,0.0,0.0,88,0.00,,SKC,0.00,VWS V14.01,2013-01-06 11:38:00,
2013-01-06 06:40:00,27.3,24.2,30.07,NNW,347,0.0,0.0,88,0.00,,SKC,0.00,VWS V14.01,2013-01-06 11:40:00,
2013-01-06 06:41:00,27.3,24.2,30.07,NNW,346,0.0,1.0,88,0.00,,SKC,0.00,VWS V14.01,2013-01-06 11:41:00,
2013-01-06 06:42:00,27.3,24.2,30.07,NNW,346,0.0,1.0,88,0.00,,SKC,0.00,VWS V14.01,2013-01-06 11:42:00,
2013-01-06 06:43:00,27.3,24.2,30.07,NNW,346,0.0,1.0,88,0.00,,SKC,0.00,VWS V14.01,2013-01-06 11:43:00,
2013-01-06 06:45:00,27.3,24.2,30.07,NNW,346,0.0,1.0,88,0.00,,SKC,0.00,VWS V14.01,2013-01-06 11:45:00,
2013-01-06 06:46:00,27.3,24.2,30.07,NNW,346,0.0,0.0,88,0.00,,SKC,0.00,VWS V14.01,2013-01-06 11:46:00,
2013-01-06 06:48:00,27.3,24.5,30.07,NNW,346,0.0,0.0,89,0.00,,SKC,0.00,VWS V14.01,2013-01-06 11:48:00,
2013-01-06 06:50:00,27.3,24.5,30.07,NNW,346,0.0,0.0,89,0.00,,SKC,0.00,VWS V14.01,2013-01-06 11:50:00,
2013-01-06 06:51:00,27.5,24.7,30.07,NNW,346,0.0,0.0,89,0.00,,SKC,0.00,VWS V14.01,2013-01-06 11:51:00,
2013-01-06 06:53:00,27.5,24.7,30.07,NNW,346,0.0,0.0,89,0.00,,SKC,0.00,VWS V14.01,2013-01-06 11:53:00,
2013-01-06 06:55:00,27.5,24.7,30.07,NNW,346,0.0,0.0,89,0.00,,SKC,0.00,VWS V14.01,2013-01-06 11:55:00,
2013-01-06 06:56:00,27.5,24.7,30.07,NNW,346,0.0,0.0,89,0.00,,SKC,0.00,VWS V14.01,2013-01-06 11:56:00,
2013-01-06 06:58:00,27.5,24.7,30.07,NNW,346,0.0,0.0,89,0.00,,SKC,0.00,VWS V14.01,2013-01-06 11:58:00,
2013-01-06 07:00:00,27.5,24.7,30.06,NNW,346,0.0,0.0,89,0.00,,SKC,0.00,VWS V14.01,2013-01-06 12:00:00,
2013-01-06 07:02:00,27.5,24.7,30.06,NNW,346,0.0,0.0,89,0.00,,SKC,0.00,VWS V14.01,2013-01-06 12:02:00,
2013-01-06 07:03:00,27.5,24.7,30.06,NNW,346,0.0,0.0,89,0.00,,SKC,0.00,VWS V14.01,2013-01-06 12:03:00,
2013-01-06 07:05:00,27.5,24.7,30.06,NNW,347,0.0,0.0,89,0.00,,SKC,0.00,VWS V14.01,2013-01-06 12:05:00,
2013-01-06 07:07:00,27.5,24.7,30.06,NNW,346,0.0,0.0,89,0.00,,SKC,0.00,VWS V14.01,2013-01-06 12:07:00,
2013-01-06 07:08:00,27.6,24.8,30.06,NNW,346,0.0,0.0,89,0.00,,SKC,0.00,VWS V14.01,2013-01-06 12:08:00,
2013-01-06 07:10:00,27.6,25.1,30.06,NNW,346,0.0,0.0,90,0.00,,SKC,0.00,VWS V14.01,2013-01-06 12:10:00,
2013-01-06 07:12:00,27.6,25.1,30.06,NNW,346,0.0,0.0,90,0.00,,SKC,0.00,VWS V14.01,2013-01-06 12:12:00,
2013-01-06 07:14:00,27.8,25.2,30.06,NNW,346,0.0,0.0,90,0.00,,SKC,0.00,VWS V14.01,2013-01-06 12:14:00,
2013-01-06 07:15:00,27.8,25.2,30.06,NNW,346,0.0,0.0,90,0.00,,SKC,0.00,VWS V14.01,2013-01-06 12:15:00,
2013-01-06 07:17:00,27.8,25.2,30.06,NNW,346,0.0,0.0,90,0.00,,SKC,0.00,VWS V14.01,2013-01-06 12:17:00,
2013-01-06 07:18:00,27.8,25.2,30.06,NNW,347,0.0,0.0,90,0.00,,SKC,0.00,VWS V14.01,2013-01-06 12:18:00,
2013-01-06 07:19:00,27.8,25.2,30.06,NNW,346,0.0,0.0,90,0.00,,SKC,0.00,VWS V14.01,2013-01-06 12:19:00,
2013-01-06 07:20:00,27.9,25.4,30.06,NNW,346,0.0,1.0,90,0.00,,SKC,0.00,VWS V14.01,2013-01-06 12:20:00,
2013-01-06 07:22:00,27.9,25.4,30.06,NNW,346,0.0,1.0,90,0.00,,SKC,0.00,VWS V14.01,2013-01-06 12:22:00,
2013-01-06 07:23:00,27.9,25.4,30.06,NNW,346,0.0,1.0,90,0.00,,SKC,0.00,VWS V14.01,2013-01-06 12:23:00,
2013-01-06 07:25:00,27.9,25.4,30.06,NNW,346,0.0,0.0,90,0.00,,SKC,0.00,VWS V14.01,2013-01-06 12:25:00,
2013-01-06 07:26:00,28.1,25.5,30.06,NNW,346,0.0,0.0,90,0.00,,SKC,0.00,VWS V14.01,2013-01-06 12:26:00,
2013-01-06 07:28:00,28.1,25.5,30.06,West,278,0.0,1.0,90,0.00,,SKC,0.00,VWS V14.01,2013-01-06 12:28:00,
2013-01-06 07:29:00,28.2,25.6,30.05,West,278,0.0,1.0,90,0.00,,SKC,0.00,VWS V14.01,2013-01-06 12:29:00,
2013-01-06 07:30:00,28.2,25.9,30.05,West,267,2.0,2.0,91,0.00,,SKC,0.00,VWS V14.01,2013-01-06 12:30:00,
2013-01-06 07:31:00,28.2,25.9,30.05,West,265,0.0,2.0,91,0.00,,SKC,0.00,VWS V14.01,2013-01-06 12:31:00,
2013-01-06 07:33:00,28.4,26.1,30.05,West,264,0.0,2.0,91,0.00,,SKC,0.00,VWS V14.01,2013-01-06 12:33:00,
2013-01-06 07:34:00,28.4,26.1,30.05,West,264,0.0,2.0,91,0.00,,SKC,0.00,VWS V14.01,2013-01-06 12:34:00,
2013-01-06 07:35:00,28.4,26.1,30.05,West,265,0.0,2.0,91,0.00,,SKC,0.00,VWS V14.01,2013-01-06 12:35:00,
2013-01-06 07:36:00,28.4,26.1,30.05,West,265,0.0,0.0,91,0.00,,SKC,0.00,VWS V14.01,2013-01-06 12:36:00,
2013-01-06 07:39:00,28.4,26.1,30.05,West,265,0.0,0.0,91,0.00,,SKC,0.00,VWS V14.01,2013-01-06 12:39:00,
2013-01-06 07:40:00,28.4,26.1,30.05,West,265,0.0,0.0,91,0.00,,SKC,0.00,VWS V14.01,2013-01-06 12:40:00,
2013-01-06 07:41:00,28.5,26.2,30.05,West,265,1.0,1.0,91,0.00,,SKC,0.00,VWS V14.01,2013-01-06 12:41:00,
2013-01-06 07:42:00,28.5,26.2,30.05,West,263,0.0,1.0,91,0.00,,SKC,0.00,VWS V14.01,2013-01-06 12:42:00,
2013-01-06 07:44:00,28.5,26.2,30.06,West,265,0.0,1.0,91,0.00,,SKC,0.00,VWS V14.01,2013-01-06 12:44:00,
2013-01-06 07:45:00,28.5,26.2,30.06,West,265,0.0,1.0,91,0.00,,SKC,0.00,VWS V14.01,2013-01-06 12:45:00,
2013-01-06 07:46:00,28.5,26.2,30.06,West,264,0.0,0.0,91,0.00,,SKC,0.00,VWS V14.01,2013-01-06 12:46:00,
2013-01-06 07:47:00,28.5,26.2,30.06,West,265,0.0,0.0,91,0.00,,SKC,0.00,VWS V14.01,2013-01-06 12:47:00,
2013-01-06 07:49:00,28.7,26.4,30.06,West,265,1.0,1.0,91,0.00,,SKC,0.00,VWS V14.01,2013-01-06 12:49:00,
2013-01-06 07:50:00,28.7,26.4,30.06,West,265,0.0,1.0,91,0.00,,SKC,0.00,VWS V14.01,2013-01-06 12:50:00,
2013-01-06 07:51:00,28.8,26.5,30.06,West,267,0.0,1.0,91,0.00,,SKC,0.00,VWS V14.01,2013-01-06 12:51:00,
2013-01-06 07:52:00,28.8,26.5,30.06,West,265,0.0,1.0,91,0.00,,SKC,0.00,VWS V14.01,2013-01-06 12:52:00,
2013-01-06 07:55:00,29.0,26.7,30.06,West,264,0.0,0.0,91,0.00,,SKC,0.00,VWS V14.01,2013-01-06 12:55:00,
2013-01-06 07:57:00,29.0,27.0,30.06,West,265,0.0,1.0,92,0.00,,SKC,0.00,VWS V14.01,2013-01-06 12:57:00,
2013-01-06 08:00:00,29.1,27.1,30.05,West,274,1.0,1.0,92,0.00,,SKC,0.00,VWS V14.01,2013-01-06 13:00:00,
2013-01-06 08:01:00,29.1,27.1,30.05,West,267,0.0,1.0,92,0.00,,SKC,0.00,VWS V14.01,2013-01-06 13:01:00,
2013-01-06 08:02:00,29.1,27.1,30.05,West,265,0.0,1.0,92,0.00,,SKC,0.00,VWS V14.01,2013-01-06 13:02:00,
2013-01-06 08:03:00,29.1,27.1,30.05,West,267,0.0,1.0,92,0.00,,SKC,0.00,VWS V14.01,2013-01-06 13:03:00,
2013-01-06 08:05:00,29.3,27.3,30.05,West,268,1.0,2.0,92,0.00,,SKC,0.00,VWS V14.01,2013-01-06 13:05:00,
2013-01-06 08:06:00,29.3,27.3,30.05,West,267,1.0,2.0,92,0.00,,SKC,0.00,VWS V14.01,2013-01-06 13:06:00,
2013-01-06 08:07:00,29.3,27.3,30.05,West,275,0.0,2.0,92,0.00,,SKC,0.00,VWS V14.01,2013-01-06 13:07:00,
2013-01-06 08:08:00,29.3,27.3,30.05,West,270,1.0,2.0,92,0.00,,SKC,0.00,VWS V14.01,2013-01-06 13:08:00,
2013-01-06 08:10:00,29.3,27.3,30.05,West,268,0.0,2.0,92,0.00,,SKC,0.00,VWS V14.01,2013-01-06 13:10:00,
2013-01-06 08:11:00,29.4,27.4,30.05,West,270,0.0,1.0,92,0.00,,SKC,0.00,VWS V14.01,2013-01-06 13:11:00,
2013-01-06 08:12:00,29.4,27.4,30.05,West,270,2.0,2.0,92,0.00,,SKC,0.00,VWS V14.01,2013-01-06 13:12:00,
2013-01-06 08:13:00,29.4,27.4,30.05,West,270,2.0,2.0,92,0.00,,SKC,0.00,VWS V14.01,2013-01-06 13:13:00,
2013-01-06 08:15:00,29.4,27.4,30.05,West,268,0.0,2.0,92,0.00,,SKC,0.00,VWS V14.01,2013-01-06 13:15:00,
2013-01-06 08:16:00,29.5,27.5,30.05,West,268,0.0,0.0,92,0.00,,SKC,0.00,VWS V14.01,2013-01-06 13:16:00,
2013-01-06 08:17:00,29.5,27.5,30.05,West,270,0.0,0.0,92,0.00,,SKC,0.00,VWS V14.01,2013-01-06 13:17:00,
2013-01-06 08:18:00,29.5,27.5,30.05,WSW,258,0.0,0.0,92,0.00,,SKC,0.00,VWS V14.01,2013-01-06 13:18:00,
2013-01-06 08:20:00,29.5,27.5,30.05,West,260,0.0,2.0,92,0.00,,SKC,0.00,VWS V14.01,2013-01-06 13:20:00,
2013-01-06 08:22:00,29.5,27.5,30.05,West,264,0.0,2.0,92,0.00,,SKC,0.00,VWS V14.01,2013-01-06 13:22:00,
2013-01-06 08:23:00,29.5,27.5,30.05,WSW,258,3.0,3.0,92,0.00,,SKC,0.00,VWS V14.01,2013-01-06 13:23:00,
2013-01-06 08:24:00,29.5,27.5,30.05,West,268,1.0,3.0,92,0.00,,SKC,0.00,VWS V14.01,2013-01-06 13:24:00,
2013-01-06 08:25:00,29.7,27.7,30.05,WNW,285,0.0,3.0,92,0.00,,SKC,0.00,VWS V14.01,2013-01-06 13:25:00,
2013-01-06 08:27:00,29.7,27.7,30.05,WNW,287,0.0,1.0,92,0.00,,SKC,0.00,VWS V14.01,2013-01-06 13:27:00,
2013-01-06 08:28:00,29.7,27.7,30.05,WNW,287,0.0,1.0,92,0.00,,SKC,0.00,VWS V14.01,2013-01-06 13:28:00,
2013-01-06 08:29:00,29.7,27.7,30.05,WNW,287,0.0,1.0,92,0.00,,SKC,0.00,VWS V14.01,2013-01-06 13:29:00,
2013-01-06 08:30:00,29.7,27.7,30.05,WNW,294,0.0,1.0,92,0.00,,SKC,0.00,VWS V14.01,2013-01-06 13:30:00,
2013-01-06 08:32:00,29.5,27.5,30.05,WNW,285,0.0,0.0,92,0.00,,SKC,0.00,VWS V14.01,2013-01-06 13:32:00,
2013-01-06 08:33:00,29.5,27.2,30.05,WNW,287,1.0,1.0,91,0.00,,SKC,0.00,VWS V14.01,2013-01-06 13:33:00,
2013-01-06 08:34:00,29.5,27.2,30.05,WNW,285,0.0,1.0,91,0.00,,SKC,0.00,VWS V14.01,2013-01-06 13:34:00,
2013-01-06 08:35:00,29.5,27.2,30.05,WNW,285,0.0,1.0,91,0.00,,SKC,0.00,VWS V14.01,2013-01-06 13:35:00,
2013-01-06 08:37:00,29.7,27.4,30.05,WNW,287,0.0,0.0,91,0.00,,SKC,0.00,VWS V14.01,2013-01-06 13:37:00,
2013-01-06 08:38:00,29.7,27.4,30.05,WNW,285,0.0,2.0,91,0.00,,SKC,0.00,VWS V14.01,2013-01-06 13:38:00,
2013-01-06 08:39:00,29.7,27.4,30.05,WNW,287,0.0,2.0,91,0.00,,SKC,0.00,VWS V14.01,2013-01-06 13:39:00,
2013-01-06 08:40:00,29.7,27.4,30.05,WNW,287,0.0,2.0,91,0.00,,SKC,0.00,VWS V14.01,2013-01-06 13:40:00,
2013-01-06 08:43:00,29.8,27.5,30.05,WNW,287,0.0,0.0,91,0.00,,SKC,0.00,VWS V14.01,2013-01-06 13:43:00,
2013-01-06 08:44:00,29.8,27.5,30.05,WNW,285,0.0,2.0,91,0.00,,SKC,0.00,VWS V14.01,2013-01-06 13:44:00,
2013-01-06 08:45:00,29.8,27.5,30.05,WNW,288,0.0,2.0,91,0.00,,SKC,0.00,VWS V14.01,2013-01-06 13:45:00,
2013-01-06 08:48:00,30.1,27.8,30.05,WNW,288,0.0,0.0,91,0.00,,SKC,0.00,VWS V14.01,2013-01-06 13:48:00,
2013-01-06 08:49:00,30.3,28.0,30.05,WNW,285,0.0,0.0,91,0.00,,SKC,0.00,VWS V14.01,2013-01-06 13:49:00,
2013-01-06 08:50:00,30.3,28.0,30.05,WNW,291,1.0,2.0,91,0.00,,SKC,0.00,VWS V14.01,2013-01-06 13:50:00,
2013-01-06 08:53:00,30.6,28.3,30.05,WNW,284,0.0,2.0,91,0.00,,SKC,0.00,VWS V14.01,2013-01-06 13:53:00,
2013-01-06 08:54:00,30.6,28.3,30.05,WNW,284,0.0,2.0,91,0.00,,SKC,0.00,VWS V14.01,2013-01-06 13:54:00,
2013-01-06 08:55:00,30.6,28.3,30.05,WNW,284,0.0,2.0,91,0.00,,SKC,0.00,VWS V14.01,2013-01-06 13:55:00,
2013-01-06 08:56:00,30.7,28.4,30.05,WNW,284,0.0,0.0,91,0.00,,SKC,0.00,VWS V14.01,2013-01-06 13:56:00,
2013-01-06 08:59:00,30.9,28.6,30.04,WNW,282,0.0,0.0,91,0.00,,SKC,0.00,VWS V14.01,2013-01-06 13:59:00,
2013-01-06 09:00:00,30.9,28.6,30.04,WNW,285,0.0,0.0,91,0.00,,SKC,0.00,VWS V14.01,2013-01-06 14:00:00,
2013-01-06 09:01:00,31.0,28.7,30.04,WNW,282,0.0,0.0,91,0.00,,SKC,0.00,VWS V14.01,2013-01-06 14:01:00,
2013-01-06 09:04:00,31.2,28.9,30.04,WNW,282,0.0,0.0,91,0.00,,SKC,0.00,VWS V14.01,2013-01-06 14:04:00,
2013-01-06 09:05:00,31.2,28.6,30.04,WNW,289,0.0,0.0,90,0.00,,SKC,0.00,VWS V14.01,2013-01-06 14:05:00,
2013-01-06 09:06:00,31.3,28.7,30.04,WNW,284,0.0,0.0,90,0.00,,SKC,0.00,VWS V14.01,2013-01-06 14:06:00,
2013-01-06 09:09:00,31.3,28.7,30.04,WNW,291,0.0,0.0,90,0.00,,SKC,0.00,VWS V14.01,2013-01-06 14:09:00,
2013-01-06 09:10:00,31.5,28.9,30.04,WNW,282,0.0,0.0,90,0.00,,SKC,0.00,VWS V14.01,2013-01-06 14:10:00,
2013-01-06 09:11:00,31.5,28.9,30.04,WNW,282,0.0,0.0,90,0.00,,SKC,0.00,VWS V14.01,2013-01-06 14:11:00,
2013-01-06 09:14:00,31.5,28.9,30.04,WNW,282,0.0,0.0,90,0.00,,SKC,0.00,VWS V14.01,2013-01-06 14:14:00,
2013-01-06 09:15:00,31.5,28.6,30.04,WNW,282,0.0,1.0,89,0.00,,SKC,0.00,VWS V14.01,2013-01-06 14:15:00,
2013-01-06 09:16:00,31.5,28.6,30.04,WNW,282,0.0,1.0,89,0.00,,SKC,0.00,VWS V14.01,2013-01-06 14:16:00,
2013-01-06 09:19:00,31.5,28.6,30.04,WNW,292,1.0,2.0,89,0.00,,SKC,0.00,VWS V14.01,2013-01-06 14:19:00,
2013-01-06 09:20:00,31.6,28.7,30.04,WSW,258,1.0,3.0,89,0.00,,SKC,0.00,VWS V14.01,2013-01-06 14:20:00,
2013-01-06 09:21:00,31.6,28.7,30.04,WSW,257,0.0,3.0,89,0.00,,SKC,0.00,VWS V14.01,2013-01-06 14:21:00,
2013-01-06 09:24:00,31.8,28.9,30.04,West,280,1.0,4.0,89,0.00,,SKC,0.00,VWS V14.01,2013-01-06 14:24:00,
2013-01-06 09:25:00,31.8,28.9,30.04,WNW,288,0.0,4.0,89,0.00,,SKC,0.00,VWS V14.01,2013-01-06 14:25:00,
2013-01-06 09:26:00,31.9,28.8,30.04,West,281,2.0,2.0,88,0.00,,SKC,0.00,VWS V14.01,2013-01-06 14:26:00,
2013-01-06 09:29:00,32.2,28.8,30.04,WNW,291,0.0,3.0,87,0.00,,SKC,0.00,VWS V14.01,2013-01-06 14:29:00,
2013-01-06 09:30:00,32.2,28.8,30.04,WNW,298,0.0,0.0,87,0.00,,SKC,0.00,VWS V14.01,2013-01-06 14:30:00,
2013-01-06 09:31:00,32.2,28.8,30.04,West,270,2.0,4.0,87,0.00,,SKC,0.00,VWS V14.01,2013-01-06 14:31:00,
2013-01-06 09:32:00,32.4,29.0,30.04,West,265,2.0,5.0,87,0.00,,SKC,0.00,VWS V14.01,2013-01-06 14:32:00,
2013-01-06 09:35:00,32.5,28.8,30.04,West,267,0.0,2.0,86,0.00,,SKC,0.00,VWS V14.01,2013-01-06 14:35:00,
2013-01-06 09:36:00,32.5,28.8,30.04,West,280,0.0,4.0,86,0.00,,SKC,0.00,VWS V14.01,2013-01-06 14:36:00,
2013-01-06 09:37:00,32.7,29.0,30.04,WNW,285,0.0,4.0,86,0.00,,SKC,0.00,VWS V14.01,2013-01-06 14:37:00,
2013-01-06 09:40:00,32.8,28.8,30.04,West,275,0.0,1.0,85,0.00,,SKC,0.00,VWS V14.01,2013-01-06 14:40:00,
2013-01-06 09:42:00,32.9,28.9,30.04,West,275,1.0,3.0,85,0.00,,SKC,0.00,VWS V14.01,2013-01-06 14:42:00,
2013-01-06 09:45:00,33.1,28.8,30.04,WNW,291,1.0,1.0,84,0.01,,SKC,0.01,VWS V14.01,2013-01-06 14:45:00,
2013-01-06 09:47:00,33.2,28.9,30.04,West,261,3.0,5.0,84,0.01,,SKC,0.01,VWS V14.01,2013-01-06 14:47:00,
2013-01-06 09:48:00,33.2,28.6,30.04,WNW,302,1.0,6.0,83,0.01,,SKC,0.01,VWS V14.01,2013-01-06 14:48:00,
2013-01-06 09:50:00,33.4,28.8,30.04,West,263,0.0,2.0,83,0.01,,SKC,0.01,VWS V14.01,2013-01-06 14:50:00,
2013-01-06 09:53:00,33.5,28.9,30.04,West,278,0.0,2.0,83,0.01,,SKC,0.01,VWS V14.01,2013-01-06 14:53:00,
2013-01-06 09:54:00,33.5,28.9,30.04,NNW,336,1.0,2.0,83,0.01,,SKC,0.01,VWS V14.01,2013-01-06 14:54:00,
2013-01-06 09:55:00,33.7,29.1,30.04,West,268,0.0,3.0,83,0.01,,SKC,0.01,VWS V14.01,2013-01-06 14:55:00,
2013-01-06 09:56:00,33.7,29.1,30.04,WNW,295,3.0,3.0,83,0.01,,SKC,0.01,VWS V14.01,2013-01-06 14:56:00,
2013-01-06 09:59:00,34.0,28.8,30.03,WSW,258,2.0,5.0,81,0.01,,SKC,0.01,VWS V14.01,2013-01-06 14:59:00,
2013-01-06 10:00:00,34.0,28.8,30.03,West,260,0.0,1.0,81,0.01,,SKC,0.01,VWS V14.01,2013-01-06 15:00:00,
2013-01-06 10:01:00,34.0,28.8,30.03,West,260,2.0,2.0,81,0.01,,SKC,0.01,VWS V14.01,2013-01-06 15:01:00,
2013-01-06 10:04:00,34.3,29.1,30.03,West,268,0.0,5.0,81,0.01,,SKC,0.01,VWS V14.01,2013-01-06 15:04:00,
2013-01-06 10:05:00,34.3,29.1,30.03,West,268,1.0,5.0,81,0.01,,SKC,0.01,VWS V14.01,2013-01-06 15:05:00,
2013-01-06 10:06:00,34.4,28.9,30.03,West,272,1.0,1.0,80,0.01,,SKC,0.01,VWS V14.01,2013-01-06 15:06:00,
2013-01-06 10:09:00,34.7,28.9,30.03,WNW,302,1.0,5.0,79,0.01,,SKC,0.01,VWS V14.01,2013-01-06 15:09:00,
2013-01-06 10:10:00,34.7,28.9,30.03,WNW,302,1.0,5.0,79,0.01,,SKC,0.01,VWS V14.01,2013-01-06 15:10:00,
2013-01-06 10:11:00,34.7,28.9,30.03,NW,313,1.0,2.0,79,0.01,,SKC,0.01,VWS V14.01,2013-01-06 15:11:00,
2013-01-06 10:14:00,35.0,28.9,30.03,West,263,2.0,3.0,78,0.01,,SKC,0.01,VWS V14.01,2013-01-06 15:14:00,
2013-01-06 10:15:00,35.0,28.9,30.03,West,263,2.0,3.0,78,0.01,,SKC,0.01,VWS V14.01,2013-01-06 15:15:00,
2013-01-06 10:16:00,35.2,28.7,30.03,West,277,0.0,4.0,77,0.01,,SKC,0.01,VWS V14.01,2013-01-06 15:16:00,
2013-01-06 10:19:00,35.5,28.4,30.03,WNW,295,1.0,3.0,75,0.01,,SKC,0.01,VWS V14.01,2013-01-06 15:19:00,
2013-01-06 10:20:00,35.5,28.4,30.03,WNW,296,2.0,3.0,75,0.01,,SKC,0.01,VWS V14.01,2013-01-06 15:20:00,
2013-01-06 10:21:00,35.5,28.4,30.03,WNW,295,0.0,3.0,75,0.01,,SKC,0.01,VWS V14.01,2013-01-06 15:21:00,
2013-01-06 10:22:00,35.6,28.5,30.03,NW,318,1.0,3.0,75,0.01,,SKC,0.01,VWS V14.01,2013-01-06 15:22:00,
2013-01-06 10:25:00,35.8,28.0,30.03,WNW,289,0.0,0.0,73,0.01,,SKC,0.01,VWS V14.01,2013-01-06 15:25:00,
2013-01-06 10:27:00,35.9,28.1,30.03,West,271,1.0,2.0,73,0.01,,SKC,0.01,VWS V14.01,2013-01-06 15:27:00,
2013-01-06 10:30:00,36.2,28.1,30.01,West,272,1.0,3.0,72,0.01,,SKC,0.01,VWS V14.01,2013-01-06 15:30:00,
2013-01-06 10:31:00,36.2,28.1,30.01,West,280,1.0,3.0,72,0.01,,SKC,0.01,VWS V14.01,2013-01-06 15:31:00,
2013-01-06 10:32:00,36.3,28.1,30.01,WNW,302,1.0,3.0,72,0.01,,SKC,0.01,VWS V14.01,2013-01-06 15:32:00,
2013-01-06 10:33:00,36.3,28.1,30.01,WNW,302,4.0,5.0,72,0.01,,SKC,0.01,VWS V14.01,2013-01-06 15:33:00,
2013-01-06 10:35:00,36.3,27.8,30.01,WNW,289,2.0,5.0,71,0.01,,SKC,0.01,VWS V14.01,2013-01-06 15:35:00,
2013-01-06 10:36:00,36.5,28.0,30.01,WNW,296,5.0,5.0,71,0.01,,SKC,0.01,VWS V14.01,2013-01-06 15:36:00,
2013-01-06 10:37:00,36.5,27.7,30.01,WNW,296,3.0,8.0,70,0.01,,SKC,0.01,VWS V14.01,2013-01-06 15:37:00,
2013-01-06 10:38:00,36.5,27.7,30.01,NW,305,0.0,8.0,70,0.01,,SKC,0.01,VWS V14.01,2013-01-06 15:38:00,
2013-01-06 10:40:00,36.6,27.8,30.01,WNW,301,1.0,8.0,70,0.01,,SKC,0.01,VWS V14.01,2013-01-06 15:40:00,
2013-01-06 10:41:00,36.6,27.8,30.01,WNW,288,3.0,6.0,70,0.01,,SKC,0.01,VWS V14.01,2013-01-06 15:41:00,
2013-01-06 10:42:00,36.8,28.0,30.01,WNW,294,1.0,6.0,70,0.01,,SKC,0.01,VWS V14.01,2013-01-06 15:42:00,
2013-01-06 10:43:00,36.8,28.0,30.01,WNW,291,2.0,6.0,70,0.01,,SKC,0.01,VWS V14.01,2013-01-06 15:43:00,
2013-01-06 10:45:00,36.8,28.0,30.01,WNW,295,1.0,6.0,70,0.01,,SKC,0.01,VWS V14.01,2013-01-06 15:45:00,
2013-01-06 10:46:00,36.9,27.7,30.01,WNW,287,2.0,6.0,69,0.00,,SKC,0.01,VWS V14.01,2013-01-06 15:46:00,
2013-01-06 10:47:00,37.0,27.8,30.01,West,272,0.0,6.0,69,0.00,,SKC,0.01,VWS V14.01,2013-01-06 15:47:00,
2013-01-06 10:48:00,37.0,27.8,30.01,West,264,0.0,6.0,69,0.00,,SKC,0.01,VWS V14.01,2013-01-06 15:48:00,
2013-01-06 10:50:00,37.0,27.8,30.01,West,268,0.0,6.0,69,0.00,,SKC,0.01,VWS V14.01,2013-01-06 15:50:00,
2013-01-06 10:51:00,37.3,28.1,30.01,NW,326,3.0,3.0,69,0.00,,SKC,0.01,VWS V14.01,2013-01-06 15:51:00,
2013-01-06 10:52:00,37.3,28.1,30.01,WNW,292,5.0,5.0,69,0.00,,SKC,0.01,VWS V14.01,2013-01-06 15:52:00,
2013-01-06 10:53:00,37.3,28.1,30.01,WNW,294,6.0,6.0,69,0.00,,SKC,0.01,VWS V14.01,2013-01-06 15:53:00,
2013-01-06 10:55:00,37.3,28.1,30.01,West,268,1.0,6.0,69,0.00,,SKC,0.01,VWS V14.01,2013-01-06 15:55:00,
2013-01-06 10:56:00,37.5,27.9,30.01,West,277,0.0,2.0,68,0.00,,SKC,0.01,VWS V14.01,2013-01-06 15:56:00,
2013-01-06 10:58:00,37.5,27.9,30.01,WNW,288,0.0,2.0,68,0.00,,SKC,0.01,VWS V14.01,2013-01-06 15:58:00,
2013-01-06 10:59:00,37.6,28.0,30.00,West,281,0.0,2.0,68,0.00,,SKC,0.01,VWS V14.01,2013-01-06 15:59:00,
2013-01-06 11:00:00,37.6,28.0,30.00,WNW,287,0.0,2.0,68,0.00,,SKC,0.01,VWS V14.01,2013-01-06 16:00:00,
2013-01-06 11:02:00,37.9,28.3,30.00,WNW,291,1.0,7.0,68,0.00,,SKC,0.01,VWS V14.01,2013-01-06 16:02:00,
2013-01-06 11:03:00,37.9,28.3,30.00,WNW,296,1.0,7.0,68,0.00,,SKC,0.01,VWS V14.01,2013-01-06 16:03:00,
2013-01-06 11:04:00,38.0,28.0,30.00,WNW,298,2.0,7.0,67,0.00,,SKC,0.01,VWS V14.01,2013-01-06 16:04:00,
2013-01-06 11:05:00,38.0,28.0,30.00,WNW,291,2.0,7.0,67,0.00,,SKC,0.01,VWS V14.01,2013-01-06 16:05:00,
2013-01-06 11:07:00,38.2,27.9,30.00,WNW,292,1.0,7.0,66,0.00,,SKC,0.01,VWS V14.01,2013-01-06 16:07:00,
2013-01-06 11:08:00,38.3,28.0,30.00,WNW,292,0.0,7.0,66,0.00,,SKC,0.01,VWS V14.01,2013-01-06 16:08:00,
2013-01-06 11:09:00,38.3,28.0,30.00,West,274,1.0,7.0,66,0.00,,SKC,0.01,VWS V14.01,2013-01-06 16:09:00,
2013-01-06 11:10:00,38.3,28.0,30.00,West,275,3.0,7.0,66,0.00,,SKC,0.01,VWS V14.01,2013-01-06 16:10:00,
2013-01-06 11:12:00,38.3,28.0,30.00,WNW,287,0.0,3.0,66,0.00,,SKC,0.01,VWS V14.01,2013-01-06 16:12:00,
2013-01-06 11:13:00,38.3,28.0,30.00,NW,305,1.0,3.0,66,0.00,,SKC,0.01,VWS V14.01,2013-01-06 16:13:00,
2013-01-06 11:14:00,38.3,28.0,29.98,NW,309,2.0,3.0,66,0.00,,SKC,0.01,VWS V14.01,2013-01-06 16:14:00,
2013-01-06 11:15:00,38.3,28.0,29.98,NW,309,2.0,3.0,66,0.00,,SKC,0.01,VWS V14.01,2013-01-06 16:15:00,
2013-01-06 11:17:00,38.5,28.1,29.98,WNW,296,0.0,3.0,66,0.00,,SKC,0.01,VWS V14.01,2013-01-06 16:17:00,
2013-01-06 11:19:00,38.5,28.1,29.98,WNW,289,1.0,3.0,66,0.00,,SKC,0.01,VWS V14.01,2013-01-06 16:19:00,
2013-01-06 11:20:00,38.6,28.2,29.98,WNW,288,1.0,3.0,66,0.00,,SKC,0.01,VWS V14.01,2013-01-06 16:20:00,
2013-01-06 11:22:00,38.8,28.1,29.98,West,270,1.0,3.0,65,0.00,,SKC,0.01,VWS V14.01,2013-01-06 16:22:00,
2013-01-06 11:24:00,38.8,28.4,29.98,West,270,2.0,3.0,66,0.00,,SKC,0.01,VWS V14.01,2013-01-06 16:24:00,
2013-01-06 11:25:00,38.8,28.4,29.98,West,264,2.0,2.0,66,0.00,,SKC,0.01,VWS V14.01,2013-01-06 16:25:00,
2013-01-06 11:27:00,38.8,28.4,29.98,West,274,1.0,6.0,66,0.00,,SKC,0.01,VWS V14.01,2013-01-06 16:27:00,
2013-01-06 11:30:00,38.8,28.4,29.97,WNW,301,0.0,1.0,66,0.00,,SKC,0.01,VWS V14.01,2013-01-06 16:30:00,
2013-01-06 11:33:00,38.9,28.5,29.97,WSW,247,6.0,6.0,66,0.00,,SKC,0.01,VWS V14.01,2013-01-06 16:33:00,
2013-01-06 11:35:00,38.9,28.1,29.97,WNW,292,6.0,6.0,65,0.00,,SKC,0.01,VWS V14.01,2013-01-06 16:35:00,
2013-01-06 11:38:00,38.9,28.1,29.97,WNW,291,0.0,6.0,65,0.00,,SKC,0.01,VWS V14.01,2013-01-06 16:38:00,
2013-01-06 11:40:00,39.1,28.3,29.97,WNW,298,2.0,2.0,65,0.00,,SKC,0.01,VWS V14.01,2013-01-06 16:40:00,
2013-01-06 11:41:00,39.1,28.3,29.97,WNW,298,2.0,2.0,65,0.00,,SKC,0.01,VWS V14.01,2013-01-06 16:41:00,
2013-01-06 11:43:00,39.2,28.1,29.97,WNW,301,4.0,4.0,64,0.00,,SKC,0.01,VWS V14.01,2013-01-06 16:43:00,
2013-01-06 11:45:00,39.2,28.1,29.96,NNW,329,3.0,3.0,64,0.00,,SKC,0.01,VWS V14.01,2013-01-06 16:45:00,
2013-01-06 11:46:00,39.3,28.2,29.96,NW,308,1.0,3.0,64,0.00,,SKC,0.01,VWS V14.01,2013-01-06 16:46:00,
2013-01-06 11:48:00,39.3,28.2,29.96,NW,306,1.0,3.0,64,0.00,,SKC,0.01,VWS V14.01,2013-01-06 16:48:00,
2013-01-06 11:50:00,39.5,28.0,29.96,NW,316,3.0,3.0,63,0.00,,SKC,0.01,VWS V14.01,2013-01-06 16:50:00,
2013-01-06 11:51:00,39.5,28.0,29.96,NW,315,0.0,3.0,63,0.00,,SKC,0.01,VWS V14.01,2013-01-06 16:51:00,
2013-01-06 11:53:00,39.6,28.1,29.96,WNW,284,0.0,3.0,63,0.00,,SKC,0.01,VWS V14.01,2013-01-06 16:53:00,
2013-01-06 11:55:00,39.6,28.4,29.96,NW,311,1.0,1.0,64,0.00,,SKC,0.01,VWS V14.01,2013-01-06 16:55:00,
2013-01-06 11:56:00,39.6,28.4,29.96,NW,311,1.0,1.0,64,0.00,,SKC,0.01,VWS V14.01,2013-01-06 16:56:00,
2013-01-06 11:58:00,39.6,28.4,29.96,NW,311,1.0,1.0,64,0.00,,SKC,0.01,VWS V14.01,2013-01-06 16:58:00,
2013-01-06 12:00:00,39.6,28.4,29.94,NW,311,1.0,1.0,64,0.00,,SKC,0.01,VWS V14.01,2013-01-06 17:00:00,
2013-01-06 12:01:00,39.6,28.4,29.94,NW,316,0.0,1.0,64,0.00,,SKC,0.01,VWS V14.01,2013-01-06 17:01:00,
2013-01-06 12:04:00,39.6,27.7,29.94,WNW,284,0.0,1.0,62,0.00,,SKC,0.01,VWS V14.01,2013-01-06 17:04:00,
2013-01-06 12:05:00,39.6,27.7,29.94,WNW,284,0.0,1.0,62,0.00,,SKC,0.01,VWS V14.01,2013-01-06 17:05:00,
2013-01-06 12:06:00,39.6,27.7,29.94,West,264,1.0,1.0,62,0.00,,SKC,0.01,VWS V14.01,2013-01-06 17:06:00,
2013-01-06 12:09:00,40.2,28.2,29.94,WNW,291,2.0,2.0,62,0.00,,SKC,0.01,VWS V14.01,2013-01-06 17:09:00,
2013-01-06 12:10:00,40.2,28.2,29.94,WNW,291,2.0,2.0,62,0.00,,SKC,0.01,VWS V14.01,2013-01-06 17:10:00,
2013-01-06 12:11:00,40.2,28.2,29.94,WNW,294,0.0,2.0,62,0.00,,SKC,0.01,VWS V14.01,2013-01-06 17:11:00,
2013-01-06 12:14:00,40.2,28.2,29.94,WNW,294,0.0,2.0,62,0.00,,SKC,0.01,VWS V14.01,2013-01-06 17:14:00,
2013-01-06 12:15:00,40.2,28.2,29.94,WNW,294,0.0,2.0,62,0.00,,SKC,0.01,VWS V14.01,2013-01-06 17:15:00,
2013-01-06 12:16:00,40.2,28.2,29.94,WNW,285,0.0,0.0,62,0.00,,SKC,0.01,VWS V14.01,2013-01-06 17:16:00,
2013-01-06 12:17:00,40.2,28.2,29.94,NW,304,0.0,1.0,62,0.00,,SKC,0.01,VWS V14.01,2013-01-06 17:17:00,
2013-01-06 12:20:00,40.2,28.2,29.94,WNW,289,1.0,3.0,62,0.00,,SKC,0.01,VWS V14.01,2013-01-06 17:20:00,
2013-01-06 12:21:00,40.2,28.2,29.94,West,264,2.0,6.0,62,0.00,,SKC,0.01,VWS V14.01,2013-01-06 17:21:00,
2013-01-06 12:22:00,40.2,28.2,29.94,WNW,296,3.0,6.0,62,0.00,,SKC,0.01,VWS V14.01,2013-01-06 17:22:00,
2013-01-06 12:25:00,40.3,27.9,29.94,WNW,294,0.0,6.0,61,0.00,,SKC,0.01,VWS V14.01,2013-01-06 17:25:00,
2013-01-06 12:26:00,40.3,27.9,29.94,WNW,291,0.0,0.0,61,0.00,,SKC,0.01,VWS V14.01,2013-01-06 17:26:00,
2013-01-06 12:27:00,40.5,28.1,29.94,WNW,295,1.0,3.0,61,0.00,,SKC,0.01,VWS V14.01,2013-01-06 17:27:00,
2013-01-06 12:30:00,40.5,27.7,29.93,West,271,3.0,3.0,60,0.00,,SKC,0.01,VWS V14.01,2013-01-06 17:30:00,
2013-01-06 12:31:00,40.6,27.8,29.93,West,274,3.0,3.0,60,0.00,,SKC,0.01,VWS V14.01,2013-01-06 17:31:00,
2013-01-06 12:32:00,40.6,27.8,29.93,NW,304,4.0,5.0,60,0.00,,SKC,0.01,VWS V14.01,2013-01-06 17:32:00,
2013-01-06 12:35:00,40.6,27.4,29.93,WNW,291,1.0,5.0,59,0.00,,SKC,0.01,VWS V14.01,2013-01-06 17:35:00,
2013-01-06 12:36:00,40.6,27.4,29.93,NW,311,1.0,11.0,59,0.00,,SKC,0.01,VWS V14.01,2013-01-06 17:36:00,
2013-01-06 12:37:00,40.6,27.4,29.93,WNW,289,0.0,11.0,59,0.00,,SKC,0.01,VWS V14.01,2013-01-06 17:37:00,
2013-01-06 12:40:00,40.6,27.4,29.93,NW,315,2.0,11.0,59,0.00,,SKC,0.01,VWS V14.01,2013-01-06 17:40:00,
2013-01-06 12:41:00,40.8,27.6,29.93,NW,319,0.0,3.0,59,0.00,,SKC,0.01,VWS V14.01,2013-01-06 17:41:00,
2013-01-06 12:42:00,40.8,27.6,29.93,NW,319,0.0,3.0,59,0.00,,SKC,0.01,VWS V14.01,2013-01-06 17:42:00,
2013-01-06 12:45:00,41.1,27.9,29.92,NW,320,0.0,3.0,59,0.00,,SKC,0.01,VWS V14.01,2013-01-06 17:45:00,
2013-01-06 12:46:00,41.1,27.9,29.92,NW,320,2.0,2.0,59,0.00,,SKC,0.01,VWS V14.01,2013-01-06 17:46:00,
2013-01-06 12:47:00,41.2,28.0,29.92,NW,315,2.0,2.0,59,0.00,,SKC,0.01,VWS V14.01,2013-01-06 17:47:00,
2013-01-06 12:50:00,41.3,28.1,29.92,WNW,301,0.0,3.0,59,0.00,,SKC,0.01,VWS V14.01,2013-01-06 17:50:00,
2013-01-06 12:51:00,41.5,27.8,29.92,West,281,3.0,3.0,58,0.00,,SKC,0.01,VWS V14.01,2013-01-06 17:51:00,
2013-01-06 12:52:00,41.5,27.8,29.92,WNW,289,0.0,3.0,58,0.00,,SKC,0.01,VWS V14.01,2013-01-06 17:52:00,
2013-01-06 12:55:00,41.5,27.8,29.92,NW,311,2.0,3.0,58,0.00,,SKC,0.01,VWS V14.01,2013-01-06 17:55:00,
2013-01-06 12:57:00,41.5,27.8,29.92,WNW,302,1.0,4.0,58,0.00,,SKC,0.01,VWS V14.01,2013-01-06 17:57:00,
2013-01-06 12:58:00,41.3,27.6,29.92,NW,304,1.0,4.0,58,0.00,,SKC,0.01,VWS V14.01,2013-01-06 17:58:00,
2013-01-06 13:00:00,41.3,27.6,29.92,West,278,2.0,4.0,58,0.00,,SKC,0.01,VWS V14.01,2013-01-06 18:00:00,
2013-01-06 13:02:00,41.3,27.6,29.92,NW,319,0.0,4.0,58,0.00,,SKC,0.01,VWS V14.01,2013-01-06 18:02:00,
2013-01-06 13:03:00,41.3,27.6,29.92,NW,322,0.0,4.0,58,0.00,,SKC,0.01,VWS V14.01,2013-01-06 18:03:00,
2013-01-06 13:04:00,41.3,27.6,29.92,NW,322,0.0,4.0,58,0.00,,SKC,0.01,VWS V14.01,2013-01-06 18:04:00,
2013-01-06 13:05:00,41.3,27.6,29.92,NW,322,0.0,4.0,58,0.00,,SKC,0.01,VWS V14.01,2013-01-06 18:05:00,
2013-01-06 13:07:00,41.3,27.6,29.92,WNW,288,2.0,2.0,58,0.00,,SKC,0.01,VWS V14.01,2013-01-06 18:07:00,
2013-01-06 13:08:00,41.3,27.6,29.92,WNW,288,2.0,2.0,58,0.00,,SKC,0.01,VWS V14.01,2013-01-06 18:08:00,
2013-01-06 13:09:00,41.3,27.6,29.92,WNW,288,2.0,2.0,58,0.00,,SKC,0.01,VWS V14.01,2013-01-06 18:09:00,
2013-01-06 13:10:00,41.3,27.6,29.92,WNW,288,2.0,2.0,58,0.00,,SKC,0.01,VWS V14.01,2013-01-06 18:10:00,
2013-01-06 13:13:00,41.3,27.6,29.92,NW,326,3.0,3.0,58,0.00,,SKC,0.01,VWS V14.01,2013-01-06 18:13:00,
2013-01-06 13:15:00,41.6,27.9,29.91,WNW,289,6.0,6.0,58,0.00,,SKC,0.01,VWS V14.01,2013-01-06 18:15:00,
2013-01-06 13:18:00,41.5,27.8,29.91,WNW,298,2.0,6.0,58,0.00,,SKC,0.01,VWS V14.01,2013-01-06 18:18:00,
2013-01-06 13:20:00,41.5,27.0,29.91,WNW,295,2.0,7.0,56,0.00,,SKC,0.01,VWS V14.01,2013-01-06 18:20:00,
2013-01-06 13:23:00,41.5,27.0,29.91,NNW,332,1.0,7.0,56,0.00,,SKC,0.01,VWS V14.01,2013-01-06 18:23:00,
2013-01-06 13:24:00,41.5,27.0,29.91,NNW,332,1.0,7.0,56,0.00,,SKC,0.01,VWS V14.01,2013-01-06 18:24:00,
2013-01-06 13:25:00,41.5,27.0,29.91,NNW,332,1.0,1.0,56,0.00,,SKC,0.01,VWS V14.01,2013-01-06 18:25:00,
2013-01-06 13:28:00,41.5,27.0,29.91,NNW,332,1.0,1.0,56,0.00,,SKC,0.01,VWS V14.01,2013-01-06 18:28:00,
2013-01-06 13:29:00,41.8,27.3,29.91,NW,315,1.0,5.0,56,0.00,,SKC,0.01,VWS V14.01,2013-01-06 18:29:00,
2013-01-06 13:30:00,41.8,27.3,29.91,NNW,339,2.0,2.0,56,0.00,,SKC,0.01,VWS V14.01,2013-01-06 18:30:00,
2013-01-06 13:33:00,41.8,27.3,29.91,NNW,330,0.0,2.0,56,0.00,,SKC,0.01,VWS V14.01,2013-01-06 18:33:00,
2013-01-06 13:34:00,41.8,27.3,29.91,NW,316,3.0,3.0,56,0.00,,SKC,0.01,VWS V14.01,2013-01-06 18:34:00,
2013-01-06 13:35:00,41.8,27.3,29.91,WNW,287,1.0,5.0,56,0.00,,SKC,0.01,VWS V14.01,2013-01-06 18:35:00,
2013-01-06 13:38:00,41.8,27.3,29.91,NW,318,3.0,7.0,56,0.01,,SKC,0.02,VWS V14.01,2013-01-06 18:38:00,
2013-01-06 13:40:00,41.8,26.8,29.91,NW,306,1.0,3.0,55,0.01,,SKC,0.02,VWS V14.01,2013-01-06 18:40:00,
2013-01-06 13:41:00,41.8,26.8,29.91,NW,306,1.0,3.0,55,0.01,,SKC,0.02,VWS V14.01,2013-01-06 18:41:00,
2013-01-06 13:43:00,41.8,26.8,29.91,NW,306,1.0,3.0,55,0.01,,SKC,0.02,VWS V14.01,2013-01-06 18:43:00,
2013-01-06 13:45:00,41.9,26.9,29.91,NW,305,0.0,0.0,55,0.01,,SKC,0.02,VWS V14.01,2013-01-06 18:45:00,
2013-01-06 13:46:00,41.9,26.9,29.91,NW,305,0.0,0.0,55,0.01,,SKC,0.02,VWS V14.01,2013-01-06 18:46:00,
2013-01-06 13:48:00,41.9,26.9,29.91,WNW,291,2.0,2.0,55,0.01,,SKC,0.02,VWS V14.01,2013-01-06 18:48:00,
2013-01-06 13:50:00,41.9,26.9,29.91,West,280,1.0,2.0,55,0.01,,SKC,0.02,VWS V14.01,2013-01-06 18:50:00,
2013-01-06 13:51:00,41.9,26.9,29.91,West,275,0.0,2.0,55,0.01,,SKC,0.02,VWS V14.01,2013-01-06 18:51:00,
2013-01-06 13:52:00,41.9,26.9,29.91,West,275,0.0,2.0,55,0.01,,SKC,0.02,VWS V14.01,2013-01-06 18:52:00,
2013-01-06 13:54:00,41.9,26.9,29.91,WNW,301,5.0,5.0,55,0.01,,SKC,0.02,VWS V14.01,2013-01-06 18:54:00,
2013-01-06 13:55:00,41.9,26.9,29.91,WNW,294,0.0,5.0,55,0.01,,SKC,0.02,VWS V14.01,2013-01-06 18:55:00,
2013-01-06 13:56:00,42.1,27.1,29.91,West,265,1.0,1.0,55,0.01,,SKC,0.02,VWS V14.01,2013-01-06 18:56:00,
2013-01-06 13:57:00,42.1,27.1,29.91,NW,312,2.0,2.0,55,0.01,,SKC,0.02,VWS V14.01,2013-01-06 18:57:00,
2013-01-06 13:58:00,42.1,27.1,29.91,WNW,295,6.0,6.0,55,0.01,,SKC,0.02,VWS V14.01,2013-01-06 18:58:00,
2013-01-06 13:59:00,42.1,27.1,29.91,WNW,295,6.0,6.0,55,0.01,,SKC,0.02,VWS V14.01,2013-01-06 18:59:00,
2013-01-06 14:00:00,42.1,27.1,29.91,WNW,295,6.0,6.0,55,0.01,,SKC,0.02,VWS V14.01,2013-01-06 19:00:00,
2013-01-06 14:01:00,42.1,27.1,29.91,WNW,295,6.0,6.0,55,0.01,,SKC,0.02,VWS V14.01,2013-01-06 19:01:00,
2013-01-06 14:02:00,42.1,27.1,29.91,WNW,295,6.0,6.0,55,0.01,,SKC,0.02,VWS V14.01,2013-01-06 19:02:00,
2013-01-06 14:04:00,42.2,27.2,29.91,West,280,3.0,6.0,55,0.01,,SKC,0.02,VWS V14.01,2013-01-06 19:04:00,
2013-01-06 14:05:00,42.2,27.2,29.91,West,280,3.0,6.0,55,0.01,,SKC,0.02,VWS V14.01,2013-01-06 19:05:00,
2013-01-06 14:06:00,42.2,27.2,29.91,West,280,3.0,3.0,55,0.01,,SKC,0.02,VWS V14.01,2013-01-06 19:06:00,
2013-01-06 14:07:00,42.2,27.2,29.91,West,274,0.0,3.0,55,0.01,,SKC,0.02,VWS V14.01,2013-01-06 19:07:00,
2013-01-06 14:09:00,42.2,27.2,29.91,West,274,0.0,3.0,55,0.01,,SKC,0.02,VWS V14.01,2013-01-06 19:09:00,
2013-01-06 14:10:00,42.3,27.3,29.91,WNW,294,3.0,3.0,55,0.01,,SKC,0.02,VWS V14.01,2013-01-06 19:10:00,
2013-01-06 14:11:00,42.3,27.3,29.91,West,265,1.0,3.0,55,0.01,,SKC,0.02,VWS V14.01,2013-01-06 19:11:00,
2013-01-06 14:13:00,42.5,27.5,29.91,West,274,2.0,3.0,55,0.01,,SKC,0.02,VWS V14.01,2013-01-06 19:13:00,
2013-01-06 14:14:00,42.3,26.9,29.91,West,281,0.0,5.0,54,0.01,,SKC,0.02,VWS V14.01,2013-01-06 19:14:00,
2013-01-06 14:15:00,42.3,26.9,29.91,West,278,0.0,5.0,54,0.01,,SKC,0.02,VWS V14.01,2013-01-06 19:15:00,
2013-01-06 14:16:00,42.3,26.9,29.91,NW,309,2.0,2.0,54,0.01,,SKC,0.02,VWS V14.01,2013-01-06 19:16:00,
2013-01-06 14:18:00,42.2,26.8,29.91,SE,144,1.0,5.0,54,0.01,,SKC,0.02,VWS V14.01,2013-01-06 19:18:00,
2013-01-06 14:19:00,42.2,26.8,29.91,SE,144,1.0,5.0,54,0.01,,SKC,0.02,VWS V14.01,2013-01-06 19:19:00,
2013-01-06 14:20:00,42.2,26.8,29.91,SE,144,1.0,5.0,54,0.01,,SKC,0.02,VWS V14.01,2013-01-06 19:20:00,
2013-01-06 14:21:00,42.2,26.8,29.91,North,352,2.0,2.0,54,0.01,,SKC,0.02,VWS V14.01,2013-01-06 19:21:00,
2013-01-06 14:24:00,42.2,26.8,29.91,WNW,285,1.0,2.0,54,0.01,,SKC,0.02,VWS V14.01,2013-01-06 19:24:00,
2013-01-06 14:25:00,42.2,26.8,29.91,WNW,285,1.0,1.0,54,0.01,,SKC,0.02,VWS V14.01,2013-01-06 19:25:00,
2013-01-06 14:27:00,42.2,26.8,29.91,WNW,291,0.0,1.0,54,0.01,,SKC,0.02,VWS V14.01,2013-01-06 19:27:00,
2013-01-06 14:29:00,42.1,26.7,29.91,WNW,292,0.0,1.0,54,0.01,,SKC,0.02,VWS V14.01,2013-01-06 19:29:00,
2013-01-06 14:30:00,42.1,27.5,29.91,WNW,289,0.0,0.0,56,0.01,,SKC,0.02,VWS V14.01,2013-01-06 19:30:00,
2013-01-06 14:32:00,42.1,27.5,29.91,WNW,292,0.0,1.0,56,0.01,,SKC,0.02,VWS V14.01,2013-01-06 19:32:00,
2013-01-06 14:34:00,42.1,27.5,29.91,WNW,292,0.0,1.0,56,0.01,,SKC,0.02,VWS V14.01,2013-01-06 19:34:00,
2013-01-06 14:35:00,42.1,27.5,29.91,North,359,0.0,0.0,56,0.01,,SKC,0.02,VWS V14.01,2013-01-06 19:35:00,
2013-01-06 14:37:00,42.1,27.5,29.91,North,357,0.0,0.0,56,0.01,,SKC,0.02,VWS V14.01,2013-01-06 19:37:00,
2013-01-06 14:40:00,42.1,27.5,29.91,WNW,296,5.0,5.0,56,0.00,,SKC,0.02,VWS V14.01,2013-01-06 19:40:00,
2013-01-06 14:45:00,42.1,27.5,29.91,WNW,288,1.0,1.0,56,0.00,,SKC,0.02,VWS V14.01,2013-01-06 19:45:00,
2013-01-06 14:50:00,42.2,27.6,29.91,West,274,0.0,1.0,56,0.00,,SKC,0.02,VWS V14.01,2013-01-06 19:50:00,
2013-01-06 14:51:00,42.2,27.6,29.91,West,274,0.0,0.0,56,0.00,,SKC,0.02,VWS V14.01,2013-01-06 19:51:00,
2013-01-06 14:55:00,42.2,27.6,29.91,South,186,0.0,1.0,56,0.00,,SKC,0.02,VWS V14.01,2013-01-06 19:55:00,
2013-01-06 14:56:00,42.2,27.6,29.91,SSW,200,0.0,0.0,56,0.00,,SKC,0.02,VWS V14.01,2013-01-06 19:56:00,
2013-01-06 15:00:00,42.2,27.6,29.90,SSW,200,0.0,0.0,56,0.00,,SKC,0.02,VWS V14.01,2013-01-06 20:00:00,
2013-01-06 15:01:00,42.2,27.6,29.90,SSW,200,0.0,0.0,56,0.00,,SKC,0.02,VWS V14.01,2013-01-06 20:01:00,
2013-01-06 15:05:00,42.2,27.6,29.90,SSW,200,0.0,0.0,56,0.00,,SKC,0.02,VWS V14.01,2013-01-06 20:05:00,
2013-01-06 15:07:00,42.2,27.6,29.90,North,357,0.0,0.0,56,0.00,,SKC,0.02,VWS V14.01,2013-01-06 20:07:00,
2013-01-06 15:10:00,42.2,27.6,29.90,WNW,287,1.0,1.0,56,0.00,,SKC,0.02,VWS V14.01,2013-01-06 20:10:00,
2013-01-06 15:12:00,42.3,27.7,29.90,WNW,295,1.0,1.0,56,0.00,,SKC,0.02,VWS V14.01,2013-01-06 20:12:00,
2013-01-06 15:13:00,42.3,27.3,29.90,WNW,294,0.0,1.0,55,0.00,,SKC,0.02,VWS V14.01,2013-01-06 20:13:00,
2013-01-06 15:14:00,42.2,27.2,29.90,WNW,295,0.0,1.0,55,0.00,,SKC,0.02,VWS V14.01,2013-01-06 20:14:00,
2013-01-06 15:15:00,42.2,27.2,29.90,WNW,295,0.0,1.0,55,0.00,,SKC,0.02,VWS V14.01,2013-01-06 20:15:00,
2013-01-06 15:16:00,42.2,27.2,29.90,WNW,295,0.0,0.0,55,0.00,,SKC,0.02,VWS V14.01,2013-01-06 20:16:00,
2013-01-06 15:17:00,42.2,27.2,29.90,WNW,295,0.0,0.0,55,0.00,,SKC,0.02,VWS V14.01,2013-01-06 20:17:00,
2013-01-06 15:18:00,42.3,27.3,29.90,WNW,295,0.0,0.0,55,0.00,,SKC,0.02,VWS V14.01,2013-01-06 20:18:00,
2013-01-06 15:19:00,42.3,27.3,29.90,WNW,298,0.0,0.0,55,0.00,,SKC,0.02,VWS V14.01,2013-01-06 20:19:00,
2013-01-06 15:20:00,42.3,27.3,29.90,WNW,292,0.0,0.0,55,0.00,,SKC,0.02,VWS V14.01,2013-01-06 20:20:00,
2013-01-06 15:21:00,42.3,27.3,29.90,WNW,292,0.0,0.0,55,0.00,,SKC,0.02,VWS V14.01,2013-01-06 20:21:00,
2013-01-06 15:22:00,42.3,27.3,29.90,WNW,294,0.0,0.0,55,0.00,,SKC,0.02,VWS V14.01,2013-01-06 20:22:00,
2013-01-06 15:23:00,42.3,27.3,29.90,WNW,295,0.0,0.0,55,0.00,,SKC,0.02,VWS V14.01,2013-01-06 20:23:00,
2013-01-06 15:24:00,42.3,27.3,29.90,WNW,301,0.0,0.0,55,0.00,,SKC,0.02,VWS V14.01,2013-01-06 20:24:00,
2013-01-06 15:25:00,42.3,27.3,29.90,WNW,288,0.0,0.0,55,0.00,,SKC,0.02,VWS V14.01,2013-01-06 20:25:00,
2013-01-06 15:26:00,42.2,27.2,29.90,SW,234,0.0,0.0,55,0.00,,SKC,0.02,VWS V14.01,2013-01-06 20:26:00,
2013-01-06 15:27:00,42.2,26.8,29.90,WSW,239,0.0,0.0,54,0.00,,SKC,0.02,VWS V14.01,2013-01-06 20:27:00,
2013-01-06 15:29:00,42.2,27.2,29.90,WSW,241,0.0,0.0,55,0.00,,SKC,0.02,VWS V14.01,2013-01-06 20:29:00,
2013-01-06 15:30:00,42.2,27.2,29.90,SW,234,0.0,0.0,55,0.00,,SKC,0.02,VWS V14.01,2013-01-06 20:30:00,
2013-01-06 15:31:00,42.2,27.2,29.90,WSW,237,0.0,0.0,55,0.00,,SKC,0.02,VWS V14.01,2013-01-06 20:31:00,
2013-01-06 15:32:00,42.1,27.1,29.90,SW,236,0.0,0.0,55,0.00,,SKC,0.02,VWS V14.01,2013-01-06 20:32:00,
2013-01-06 15:34:00,42.1,27.1,29.90,SW,236,0.0,0.0,55,0.00,,SKC,0.02,VWS V14.01,2013-01-06 20:34:00,
2013-01-06 15:35:00,42.1,27.1,29.90,SW,236,0.0,0.0,55,0.00,,SKC,0.02,VWS V14.01,2013-01-06 20:35:00,
2013-01-06 15:37:00,42.1,27.1,29.90,SW,236,0.0,0.0,55,0.00,,SKC,0.02,VWS V14.01,2013-01-06 20:37:00,
2013-01-06 15:39:00,41.9,26.9,29.90,WSW,240,0.0,0.0,55,0.00,,SKC,0.02,VWS V14.01,2013-01-06 20:39:00,
2013-01-06 15:40:00,41.9,26.9,29.90,WSW,240,0.0,0.0,55,0.00,,SKC,0.02,VWS V14.01,2013-01-06 20:40:00,
2013-01-06 15:42:00,41.9,26.9,29.90,WSW,237,0.0,0.0,55,0.00,,SKC,0.02,VWS V14.01,2013-01-06 20:42:00,
2013-01-06 15:45:00,41.6,27.1,29.90,WSW,237,0.0,0.0,56,0.00,,SKC,0.02,VWS V14.01,2013-01-06 20:45:00,
2013-01-06 15:47:00,41.6,27.1,29.90,WSW,241,0.0,0.0,56,0.00,,SKC,0.02,VWS V14.01,2013-01-06 20:47:00,
2013-01-06 15:48:00,41.3,26.8,29.90,SW,236,0.0,0.0,56,0.00,,SKC,0.02,VWS V14.01,2013-01-06 20:48:00,
2013-01-06 15:50:00,41.3,26.8,29.90,SSE,167,0.0,0.0,56,0.00,,SKC,0.02,VWS V14.01,2013-01-06 20:50:00,
2013-01-06 15:53:00,41.2,26.7,29.90,SSE,165,0.0,1.0,56,0.00,,SKC,0.02,VWS V14.01,2013-01-06 20:53:00,
2013-01-06 15:54:00,40.9,26.4,29.90,NNW,329,2.0,2.0,56,0.00,,SKC,0.02,VWS V14.01,2013-01-06 20:54:00,
2013-01-06 15:55:00,40.6,26.1,29.90,NNW,330,0.0,0.0,56,0.00,,SKC,0.02,VWS V14.01,2013-01-06 20:55:00,
2013-01-06 15:58:00,40.6,26.1,29.90,NNW,330,0.0,0.0,56,0.00,,SKC,0.02,VWS V14.01,2013-01-06 20:58:00,
2013-01-06 15:59:00,40.6,26.1,29.91,NNW,330,0.0,0.0,56,0.00,,SKC,0.02,VWS V14.01,2013-01-06 20:59:00,
2013-01-06 16:00:00,40.6,26.1,29.91,NNW,330,0.0,0.0,56,0.00,,SKC,0.02,VWS V14.01,2013-01-06 21:00:00,
2013-01-06 16:03:00,40.1,26.5,29.91,NW,312,0.0,2.0,58,0.00,,SKC,0.02,VWS V14.01,2013-01-06 21:03:00,
2013-01-06 16:04:00,39.9,26.3,29.91,NW,311,0.0,2.0,58,0.00,,SKC,0.02,VWS V14.01,2013-01-06 21:04:00,
2013-01-06 16:05:00,39.9,26.3,29.91,NW,313,0.0,0.0,58,0.00,,SKC,0.02,VWS V14.01,2013-01-06 21:05:00,
2013-01-06 16:08:00,39.9,26.3,29.91,NW,313,0.0,0.0,58,0.00,,SKC,0.02,VWS V14.01,2013-01-06 21:08:00,
2013-01-06 16:09:00,39.9,26.3,29.91,NW,309,0.0,0.0,58,0.00,,SKC,0.02,VWS V14.01,2013-01-06 21:09:00,
2013-01-06 16:10:00,39.9,26.3,29.91,NW,309,0.0,0.0,58,0.00,,SKC,0.02,VWS V14.01,2013-01-06 21:10:00,
2013-01-06 16:13:00,39.3,25.8,29.91,NW,309,0.0,0.0,58,0.00,,SKC,0.02,VWS V14.01,2013-01-06 21:13:00,
2013-01-06 16:14:00,39.2,25.7,29.91,NW,311,0.0,0.0,58,0.00,,SKC,0.02,VWS V14.01,2013-01-06 21:14:00,
2013-01-06 16:15:00,39.2,25.7,29.91,NW,311,0.0,0.0,58,0.00,,SKC,0.02,VWS V14.01,2013-01-06 21:15:00,
2013-01-06 16:16:00,39.1,26.0,29.91,NW,309,0.0,0.0,59,0.00,,SKC,0.02,VWS V14.01,2013-01-06 21:16:00,
2013-01-06 16:18:00,39.1,26.0,29.91,NW,311,0.0,0.0,59,0.00,,SKC,0.02,VWS V14.01,2013-01-06 21:18:00,
2013-01-06 16:20:00,39.1,26.0,29.91,NW,312,0.0,0.0,59,0.00,,SKC,0.02,VWS V14.01,2013-01-06 21:20:00,
2013-01-06 16:21:00,39.1,26.0,29.91,NW,312,0.0,0.0,59,0.00,,SKC,0.02,VWS V14.01,2013-01-06 21:21:00,
2013-01-06 16:23:00,38.6,25.9,29.91,NW,309,0.0,0.0,60,0.00,,SKC,0.02,VWS V14.01,2013-01-06 21:23:00,
2013-01-06 16:25:00,38.5,25.8,29.91,NW,309,0.0,0.0,60,0.00,,SKC,0.02,VWS V14.01,2013-01-06 21:25:00,
2013-01-06 16:26:00,38.5,25.8,29.91,NW,311,0.0,0.0,60,0.00,,SKC,0.02,VWS V14.01,2013-01-06 21:26:00,
2013-01-06 16:29:00,38.3,25.6,29.91,NW,313,0.0,0.0,60,0.00,,SKC,0.02,VWS V14.01,2013-01-06 21:29:00,
2013-01-06 16:30:00,38.0,25.4,29.91,NW,313,0.0,0.0,60,0.00,,SKC,0.02,VWS V14.01,2013-01-06 21:30:00,
2013-01-06 16:31:00,38.0,25.4,29.91,NW,312,0.0,0.0,60,0.00,,SKC,0.02,VWS V14.01,2013-01-06 21:31:00,
2013-01-06 16:34:00,37.9,25.3,29.91,NW,312,0.0,0.0,60,0.00,,SKC,0.02,VWS V14.01,2013-01-06 21:34:00,
2013-01-06 16:35:00,37.8,25.2,29.91,NW,313,0.0,0.0,60,0.00,,SKC,0.02,VWS V14.01,2013-01-06 21:35:00,
2013-01-06 16:36:00,37.6,25.0,29.91,NW,309,0.0,0.0,60,0.00,,SKC,0.02,VWS V14.01,2013-01-06 21:36:00,
2013-01-06 16:37:00,37.6,25.0,29.91,NW,309,0.0,0.0,60,0.00,,SKC,0.02,VWS V14.01,2013-01-06 21:37:00,
2013-01-06 16:39:00,37.6,25.0,29.91,NW,311,0.0,0.0,60,0.00,,SKC,0.02,VWS V14.01,2013-01-06 21:39:00,
2013-01-06 16:40:00,37.6,25.0,29.91,NW,312,0.0,0.0,60,0.00,,SKC,0.02,VWS V14.01,2013-01-06 21:40:00,
2013-01-06 16:41:00,37.6,25.0,29.91,NW,311,0.0,0.0,60,0.00,,SKC,0.02,VWS V14.01,2013-01-06 21:41:00,
2013-01-06 16:42:00,37.3,24.7,29.91,NW,311,0.0,0.0,60,0.00,,SKC,0.02,VWS V14.01,2013-01-06 21:42:00,
2013-01-06 16:44:00,37.3,25.9,29.91,NW,315,0.0,0.0,63,0.00,,SKC,0.02,VWS V14.01,2013-01-06 21:44:00,
2013-01-06 16:45:00,37.3,25.9,29.91,NW,315,0.0,0.0,63,0.00,,SKC,0.02,VWS V14.01,2013-01-06 21:45:00,
2013-01-06 16:46:00,37.2,25.8,29.91,NW,311,0.0,0.0,63,0.00,,SKC,0.02,VWS V14.01,2013-01-06 21:46:00,
2013-01-06 16:47:00,37.2,25.8,29.91,NW,311,0.0,0.0,63,0.00,,SKC,0.02,VWS V14.01,2013-01-06 21:47:00,
2013-01-06 16:50:00,37.0,25.6,29.91,NW,313,0.0,0.0,63,0.00,,SKC,0.02,VWS V14.01,2013-01-06 21:50:00,
2013-01-06 16:51:00,36.8,25.4,29.91,NW,311,0.0,0.0,63,0.00,,SKC,0.02,VWS V14.01,2013-01-06 21:51:00,
2013-01-06 16:52:00,36.8,25.4,29.91,NW,311,0.0,0.0,63,0.00,,SKC,0.02,VWS V14.01,2013-01-06 21:52:00,
2013-01-06 16:55:00,36.6,25.2,29.91,NW,312,0.0,0.0,63,0.00,,SKC,0.02,VWS V14.01,2013-01-06 21:55:00,
2013-01-06 16:56:00,36.6,25.2,29.91,NW,312,0.0,0.0,63,0.00,,SKC,0.02,VWS V14.01,2013-01-06 21:56:00,
2013-01-06 16:57:00,36.6,25.2,29.91,NW,312,0.0,0.0,63,0.00,,SKC,0.02,VWS V14.01,2013-01-06 21:57:00,
2013-01-06 16:58:00,36.6,25.2,29.91,NW,312,0.0,0.0,63,0.00,,SKC,0.02,VWS V14.01,2013-01-06 21:58:00,
2013-01-06 17:00:00,36.6,25.2,29.92,NW,312,0.0,0.0,63,0.00,,SKC,0.02,VWS V14.01,2013-01-06 22:00:00,
2013-01-06 17:02:00,36.6,25.2,29.92,NW,311,0.0,0.0,63,0.00,,SKC,0.02,VWS V14.01,2013-01-06 22:02:00,
2013-01-06 17:03:00,35.9,24.5,29.92,NW,315,0.0,0.0,63,0.00,,SKC,0.02,VWS V14.01,2013-01-06 22:03:00,
2013-01-06 17:05:00,35.8,24.5,29.92,NW,313,0.0,0.0,63,0.00,,SKC,0.02,VWS V14.01,2013-01-06 22:05:00,
2013-01-06 17:06:00,35.8,25.9,29.92,NW,313,0.0,0.0,67,0.00,,SKC,0.02,VWS V14.01,2013-01-06 22:06:00,
2013-01-06 17:07:00,35.6,25.7,29.92,NW,315,0.0,0.0,67,0.00,,SKC,0.02,VWS V14.01,2013-01-06 22:07:00,
2013-01-06 17:08:00,35.5,25.6,29.92,NW,313,0.0,0.0,67,0.00,,SKC,0.02,VWS V14.01,2013-01-06 22:08:00,
2013-01-06 17:10:00,35.3,25.5,29.92,NW,312,0.0,0.0,67,0.00,,SKC,0.02,VWS V14.01,2013-01-06 22:10:00,
2013-01-06 17:11:00,35.3,25.5,29.92,NW,313,0.0,0.0,67,0.00,,SKC,0.02,VWS V14.01,2013-01-06 22:11:00,
2013-01-06 17:12:00,35.2,25.4,29.92,NW,313,0.0,0.0,67,0.00,,SKC,0.02,VWS V14.01,2013-01-06 22:12:00,
2013-01-06 17:13:00,35.2,25.4,29.92,NW,312,0.0,0.0,67,0.00,,SKC,0.02,VWS V14.01,2013-01-06 22:13:00,
2013-01-06 17:15:00,34.9,25.1,29.92,NW,315,0.0,0.0,67,0.00,,SKC,0.02,VWS V14.01,2013-01-06 22:15:00,
2013-01-06 17:16:00,34.9,25.1,29.92,NW,313,0.0,0.0,67,0.00,,SKC,0.02,VWS V14.01,2013-01-06 22:16:00,
2013-01-06 17:17:00,34.7,24.9,29.92,NW,311,0.0,0.0,67,0.00,,SKC,0.02,VWS V14.01,2013-01-06 22:17:00,
2013-01-06 17:18:00,34.7,24.9,29.92,NW,311,0.0,0.0,67,0.00,,SKC,0.02,VWS V14.01,2013-01-06 22:18:00,
2013-01-06 17:19:00,34.7,24.9,29.92,NW,311,0.0,0.0,67,0.00,,SKC,0.02,VWS V14.01,2013-01-06 22:19:00,
2013-01-06 17:20:00,34.4,24.6,29.92,NW,311,0.0,0.0,67,0.00,,SKC,0.02,VWS V14.01,2013-01-06 22:20:00,
2013-01-06 17:21:00,34.4,24.6,29.92,NW,311,0.0,0.0,67,0.00,,SKC,0.02,VWS V14.01,2013-01-06 22:21:00,
2013-01-06 17:23:00,34.1,24.3,29.92,NW,313,0.0,0.0,67,0.00,,SKC,0.02,VWS V14.01,2013-01-06 22:23:00,
2013-01-06 17:24:00,34.1,24.3,29.92,NW,313,0.0,0.0,67,0.00,,SKC,0.02,VWS V14.01,2013-01-06 22:24:00,
2013-01-06 17:25:00,34.1,24.3,29.92,NW,313,0.0,0.0,67,0.00,,SKC,0.02,VWS V14.01,2013-01-06 22:25:00,
2013-01-06 17:26:00,34.1,24.3,29.92,NW,313,0.0,0.0,67,0.00,,SKC,0.02,VWS V14.01,2013-01-06 22:26:00,
2013-01-06 17:28:00,34.1,24.3,29.92,NW,311,0.0,0.0,67,0.00,,SKC,0.02,VWS V14.01,2013-01-06 22:28:00,
2013-01-06 17:29:00,33.5,23.7,29.92,NW,313,0.0,0.0,67,0.00,,SKC,0.02,VWS V14.01,2013-01-06 22:29:00,
2013-01-06 17:30:00,33.4,23.6,29.92,NW,312,0.0,0.0,67,0.00,,SKC,0.02,VWS V14.01,2013-01-06 22:30:00,
2013-01-06 17:31:00,33.2,24.8,29.92,NW,313,0.0,0.0,71,0.00,,SKC,0.02,VWS V14.01,2013-01-06 22:31:00,
2013-01-06 17:33:00,33.1,24.7,29.92,NW,315,0.0,0.0,71,0.00,,SKC,0.02,VWS V14.01,2013-01-06 22:33:00,
2013-01-06 17:34:00,32.9,24.5,29.92,NW,312,0.0,0.0,71,0.00,,SKC,0.02,VWS V14.01,2013-01-06 22:34:00,
2013-01-06 17:35:00,32.9,24.5,29.92,NW,312,0.0,0.0,71,0.00,,SKC,0.02,VWS V14.01,2013-01-06 22:35:00,
2013-01-06 17:37:00,32.9,24.5,29.92,NW,313,0.0,0.0,71,0.00,,SKC,0.02,VWS V14.01,2013-01-06 22:37:00,
2013-01-06 17:38:00,32.9,24.5,29.92,NW,313,0.0,0.0,71,0.00,,SKC,0.02,VWS V14.01,2013-01-06 22:38:00,
2013-01-06 17:39:00,32.9,24.9,29.92,NW,313,0.0,0.0,72,0.00,,SKC,0.02,VWS V14.01,2013-01-06 22:39:00,
2013-01-06 17:40:00,32.9,24.9,29.92,NW,313,0.0,0.0,72,0.00,,SKC,0.02,VWS V14.01,2013-01-06 22:40:00,
2013-01-06 17:43:00,32.2,24.2,29.92,NW,315,0.0,0.0,72,0.00,,SKC,0.02,VWS V14.01,2013-01-06 22:43:00,
2013-01-06 17:44:00,32.2,24.2,29.92,NW,315,0.0,0.0,72,0.00,,SKC,0.02,VWS V14.01,2013-01-06 22:44:00,
2013-01-06 17:45:00,32.2,24.2,29.92,NW,315,0.0,0.0,72,0.00,,SKC,0.02,VWS V14.01,2013-01-06 22:45:00,
2013-01-06 17:48:00,32.2,24.2,29.92,NW,313,0.0,0.0,72,0.00,,SKC,0.02,VWS V14.01,2013-01-06 22:48:00,
2013-01-06 17:49:00,32.2,24.2,29.92,NW,315,0.0,0.0,72,0.00,,SKC,0.02,VWS V14.01,2013-01-06 22:49:00,
2013-01-06 17:50:00,32.2,24.2,29.92,NW,312,0.0,0.0,72,0.00,,SKC,0.02,VWS V14.01,2013-01-06 22:50:00,
2013-01-06 17:53:00,31.6,23.6,29.92,NW,313,0.0,0.0,72,0.00,,SKC,0.02,VWS V14.01,2013-01-06 22:53:00,
2013-01-06 17:54:00,31.6,23.6,29.92,NW,313,0.0,0.0,72,0.00,,SKC,0.02,VWS V14.01,2013-01-06 22:54:00,
2013-01-06 17:55:00,31.6,23.6,29.92,NW,313,0.0,0.0,72,0.00,,SKC,0.02,VWS V14.01,2013-01-06 22:55:00,
2013-01-06 17:58:00,31.5,24.5,29.92,NW,313,0.0,0.0,75,0.00,,SKC,0.02,VWS V14.01,2013-01-06 22:58:00,
2013-01-06 17:59:00,31.3,24.3,29.93,NW,311,0.0,0.0,75,0.00,,SKC,0.02,VWS V14.01,2013-01-06 22:59:00,
2013-01-06 18:00:00,31.3,24.3,29.93,NW,313,0.0,0.0,75,0.00,,SKC,0.02,VWS V14.01,2013-01-06 23:00:00,
2013-01-06 18:03:00,31.3,24.3,29.93,NW,311,0.0,0.0,75,0.00,,SKC,0.02,VWS V14.01,2013-01-06 23:03:00,
2013-01-06 18:04:00,31.3,24.3,29.93,NW,311,0.0,0.0,75,0.00,,SKC,0.02,VWS V14.01,2013-01-06 23:04:00,
2013-01-06 18:05:00,31.3,24.3,29.93,NW,311,0.0,0.0,75,0.00,,SKC,0.02,VWS V14.01,2013-01-06 23:05:00,
2013-01-06 18:08:00,31.3,24.9,29.93,NW,311,0.0,0.0,77,0.00,,SKC,0.02,VWS V14.01,2013-01-06 23:08:00,
2013-01-06 18:09:00,30.7,24.4,29.93,NW,316,0.0,0.0,77,0.00,,SKC,0.02,VWS V14.01,2013-01-06 23:09:00,
2013-01-06 18:10:00,30.7,24.4,29.93,NW,316,0.0,0.0,77,0.00,,SKC,0.02,VWS V14.01,2013-01-06 23:10:00,
2013-01-06 18:13:00,30.6,24.3,29.93,NW,313,0.0,0.0,77,0.00,,SKC,0.02,VWS V14.01,2013-01-06 23:13:00,
2013-01-06 18:14:00,30.6,24.3,29.93,NW,311,0.0,0.0,77,0.00,,SKC,0.02,VWS V14.01,2013-01-06 23:14:00,
2013-01-06 18:15:00,30.4,24.4,29.93,NW,311,0.0,0.0,78,0.00,,SKC,0.02,VWS V14.01,2013-01-06 23:15:00,
2013-01-06 18:18:00,30.4,24.4,29.93,NW,312,0.0,0.0,78,0.00,,SKC,0.02,VWS V14.01,2013-01-06 23:18:00,
2013-01-06 18:19:00,30.4,24.4,29.93,NW,315,0.0,0.0,78,0.00,,SKC,0.02,VWS V14.01,2013-01-06 23:19:00,
2013-01-06 18:20:00,30.4,24.4,29.93,NW,315,0.0,0.0,78,0.00,,SKC,0.02,VWS V14.01,2013-01-06 23:20:00,
2013-01-06 18:23:00,30.1,24.1,29.93,NW,313,0.0,0.0,78,0.00,,SKC,0.02,VWS V14.01,2013-01-06 23:23:00,
2013-01-06 18:24:00,30.1,24.1,29.93,NW,313,0.0,0.0,78,0.00,,SKC,0.02,VWS V14.01,2013-01-06 23:24:00,
2013-01-06 18:25:00,30.1,24.1,29.93,NW,313,0.0,0.0,78,0.00,,SKC,0.02,VWS V14.01,2013-01-06 23:25:00,
2013-01-06 18:26:00,30.1,24.1,29.93,NW,312,0.0,0.0,78,0.00,,SKC,0.02,VWS V14.01,2013-01-06 23:26:00,
2013-01-06 18:29:00,30.1,24.1,29.93,NW,313,0.0,0.0,78,0.00,,SKC,0.02,VWS V14.01,2013-01-06 23:29:00,
2013-01-06 18:30:00,30.1,24.1,29.93,NW,313,0.0,0.0,78,0.00,,SKC,0.02,VWS V14.01,2013-01-06 23:30:00,
2013-01-06 18:31:00,29.8,23.8,29.93,NW,313,0.0,0.0,78,0.00,,SKC,0.02,VWS V14.01,2013-01-06 23:31:00,
2013-01-06 18:34:00,29.7,24.6,29.93,NW,316,0.0,0.0,81,0.00,,SKC,0.02,VWS V14.01,2013-01-06 23:34:00,
2013-01-06 18:35:00,29.7,24.6,29.93,NW,315,0.0,0.0,81,0.00,,SKC,0.02,VWS V14.01,2013-01-06 23:35:00,
2013-01-06 18:36:00,29.5,24.4,29.93,NW,313,0.0,0.0,81,0.00,,SKC,0.02,VWS V14.01,2013-01-06 23:36:00,
2013-01-06 18:39:00,29.5,24.4,29.93,NW,312,0.0,0.0,81,0.00,,SKC,0.02,VWS V14.01,2013-01-06 23:39:00,
2013-01-06 18:40:00,29.5,24.4,29.93,NW,312,0.0,0.0,81,0.00,,SKC,0.02,VWS V14.01,2013-01-06 23:40:00,
2013-01-06 18:41:00,29.5,24.4,29.93,NW,312,0.0,0.0,81,0.00,,SKC,0.02,VWS V14.01,2013-01-06 23:41:00,
2013-01-06 18:45:00,29.4,24.3,29.93,NW,313,0.0,0.0,81,0.00,,SKC,0.02,VWS V14.01,2013-01-06 23:45:00,
2013-01-06 18:47:00,29.4,24.3,29.93,NW,312,0.0,0.0,81,0.00,,SKC,0.02,VWS V14.01,2013-01-06 23:47:00,
2013-01-06 18:50:00,29.4,24.3,29.93,NW,312,0.0,0.0,81,0.00,,SKC,0.02,VWS V14.01,2013-01-06 23:50:00,
2013-01-06 18:52:00,29.3,24.2,29.93,NW,313,0.0,0.0,81,0.00,,SKC,0.02,VWS V14.01,2013-01-06 23:52:00,
2013-01-06 18:55:00,29.3,24.2,29.93,NW,313,0.0,0.0,81,0.00,,SKC,0.02,VWS V14.01,2013-01-06 23:55:00,
2013-01-06 18:57:00,29.3,24.2,29.93,NW,312,0.0,0.0,81,0.00,,SKC,0.02,VWS V14.01,2013-01-06 23:57:00,
2013-01-06 19:00:00,29.3,24.2,29.93,NW,313,0.0,0.0,81,0.00,,SKC,0.02,VWS V14.01,2013-01-07 00:00:00,
2013-01-06 19:01:00,29.3,24.2,29.93,NW,313,0.0,0.0,81,0.00,,SKC,0.02,VWS V14.01,2013-01-07 00:01:00,
2013-01-06 19:03:00,29.1,24.0,29.93,NW,313,0.0,0.0,81,0.00,,SKC,0.02,VWS V14.01,2013-01-07 00:03:00,
2013-01-06 19:05:00,29.1,24.0,29.93,NW,313,0.0,0.0,81,0.00,,SKC,0.02,VWS V14.01,2013-01-07 00:05:00,
2013-01-06 19:06:00,29.1,24.0,29.93,NW,311,0.0,0.0,81,0.00,,SKC,0.02,VWS V14.01,2013-01-07 00:06:00,
2013-01-06 19:08:00,29.1,24.0,29.93,NW,312,0.0,0.0,81,0.00,,SKC,0.02,VWS V14.01,2013-01-07 00:08:00,
2013-01-06 19:10:00,29.1,24.0,29.93,NW,311,0.0,0.0,81,0.00,,SKC,0.02,VWS V14.01,2013-01-07 00:10:00,
2013-01-06 19:11:00,29.1,24.3,29.93,NW,311,0.0,0.0,82,0.00,,SKC,0.02,VWS V14.01,2013-01-07 00:11:00,
2013-01-06 19:13:00,29.1,24.3,29.93,NW,315,0.0,0.0,82,0.00,,SKC,0.02,VWS V14.01,2013-01-07 00:13:00,
2013-01-06 19:14:00,29.1,24.3,29.93,NW,313,0.0,0.0,82,0.00,,SKC,0.02,VWS V14.01,2013-01-07 00:14:00,
2013-01-06 19:15:00,29.1,24.3,29.93,NW,312,0.0,0.0,82,0.00,,SKC,0.02,VWS V14.01,2013-01-07 00:15:00,
2013-01-06 19:16:00,29.0,24.2,29.93,NW,313,0.0,0.0,82,0.00,,SKC,0.02,VWS V14.01,2013-01-07 00:16:00,
2013-01-06 19:18:00,29.0,24.2,29.93,NW,313,0.0,0.0,82,0.00,,SKC,0.02,VWS V14.01,2013-01-07 00:18:00,
2013-01-06 19:19:00,29.0,24.2,29.93,NW,312,0.0,0.0,82,0.00,,SKC,0.02,VWS V14.01,2013-01-07 00:19:00,
2013-01-06 19:20:00,29.0,24.2,29.93,NW,312,0.0,0.0,82,0.00,,SKC,0.02,VWS V14.01,2013-01-07 00:20:00,
2013-01-06 19:21:00,29.0,24.2,29.93,NW,313,0.0,0.0,82,0.00,,SKC,0.02,VWS V14.01,2013-01-07 00:21:00,
2013-01-06 19:23:00,29.0,24.2,29.93,NW,313,0.0,0.0,82,0.00,,SKC,0.02,VWS V14.01,2013-01-07 00:23:00,
2013-01-06 19:24:00,29.0,24.2,29.93,NW,313,0.0,0.0,82,0.00,,SKC,0.02,VWS V14.01,2013-01-07 00:24:00,
2013-01-06 19:25:00,29.0,24.2,29.93,NW,313,0.0,0.0,82,0.00,,SKC,0.02,VWS V14.01,2013-01-07 00:25:00,
2013-01-06 19:26:00,29.0,24.2,29.93,NW,313,0.0,0.0,82,0.00,,SKC,0.02,VWS V14.01,2013-01-07 00:26:00,
2013-01-06 19:27:00,29.0,24.2,29.93,NW,313,0.0,0.0,82,0.00,,SKC,0.02,VWS V14.01,2013-01-07 00:27:00,
2013-01-06 19:28:00,29.0,24.2,29.93,NW,312,0.0,0.0,82,0.00,,SKC,0.02,VWS V14.01,2013-01-07 00:28:00,
2013-01-06 19:29:00,29.0,24.2,29.93,NW,313,0.0,0.0,82,0.00,,SKC,0.02,VWS V14.01,2013-01-07 00:29:00,
2013-01-06 19:30:00,29.0,24.2,29.93,NW,313,0.0,0.0,82,0.00,,SKC,0.02,VWS V14.01,2013-01-07 00:30:00,
2013-01-06 19:32:00,29.0,24.2,29.93,NW,313,0.0,0.0,82,0.00,,SKC,0.02,VWS V14.01,2013-01-07 00:32:00,
2013-01-06 19:33:00,29.0,24.5,29.93,NW,312,0.0,0.0,83,0.00,,SKC,0.02,VWS V14.01,2013-01-07 00:33:00,
2013-01-06 19:34:00,29.0,24.5,29.93,NW,313,0.0,0.0,83,0.00,,SKC,0.02,VWS V14.01,2013-01-07 00:34:00,
2013-01-06 19:35:00,29.0,24.5,29.93,NW,313,0.0,0.0,83,0.00,,SKC,0.02,VWS V14.01,2013-01-07 00:35:00,
2013-01-06 19:37:00,29.0,24.5,29.93,NW,313,0.0,0.0,83,0.00,,SKC,0.02,VWS V14.01,2013-01-07 00:37:00,
2013-01-06 19:38:00,29.0,24.5,29.93,NW,313,0.0,0.0,83,0.00,,SKC,0.02,VWS V14.01,2013-01-07 00:38:00,
2013-01-06 19:39:00,29.0,24.5,29.93,NW,315,0.0,0.0,83,0.00,,SKC,0.02,VWS V14.01,2013-01-07 00:39:00,
2013-01-06 19:40:00,29.0,24.5,29.93,NW,315,0.0,0.0,83,0.00,,SKC,0.02,VWS V14.01,2013-01-07 00:40:00,
2013-01-06 19:42:00,29.0,24.2,29.93,NW,312,0.0,0.0,82,0.00,,SKC,0.02,VWS V14.01,2013-01-07 00:42:00,
2013-01-06 19:43:00,29.0,24.2,29.93,NW,312,0.0,0.0,82,0.00,,SKC,0.02,VWS V14.01,2013-01-07 00:43:00,
2013-01-06 19:44:00,29.0,24.2,29.94,NW,312,0.0,0.0,82,0.00,,SKC,0.02,VWS V14.01,2013-01-07 00:44:00,
2013-01-06 19:45:00,29.0,24.2,29.94,NW,312,0.0,0.0,82,0.00,,SKC,0.02,VWS V14.01,2013-01-07 00:45:00,
2013-01-06 19:48:00,28.8,24.0,29.94,NW,311,0.0,0.0,82,0.00,,SKC,0.02,VWS V14.01,2013-01-07 00:48:00,
2013-01-06 19:49:00,28.8,24.0,29.94,NW,315,0.0,0.0,82,0.00,,SKC,0.02,VWS V14.01,2013-01-07 00:49:00,
2013-01-06 19:50:00,28.8,24.0,29.94,NW,315,0.0,0.0,82,0.00,,SKC,0.02,VWS V14.01,2013-01-07 00:50:00,
2013-01-06 19:53:00,28.8,24.0,29.94,NW,311,0.0,0.0,82,0.00,,SKC,0.02,VWS V14.01,2013-01-07 00:53:00,
2013-01-06 19:54:00,28.8,24.0,29.94,NW,313,0.0,0.0,82,0.00,,SKC,0.02,VWS V14.01,2013-01-07 00:54:00,
2013-01-06 19:55:00,28.8,24.0,29.94,NW,313,0.0,0.0,82,0.00,,SKC,0.02,VWS V14.01,2013-01-07 00:55:00,
2013-01-06 19:58:00,29.0,24.5,29.93,NW,313,0.0,0.0,83,0.00,,SKC,0.02,VWS V14.01,2013-01-07 00:58:00,
2013-01-06 19:59:00,29.0,24.8,29.93,NW,313,0.0,0.0,84,0.00,,SKC,0.02,VWS V14.01,2013-01-07 00:59:00,
2013-01-06 20:00:00,29.0,24.8,29.93,NW,311,0.0,0.0,84,0.00,,SKC,0.02,VWS V14.01,2013-01-07 01:00:00,
2013-01-06 20:04:00,29.0,24.8,29.93,NW,313,0.0,0.0,84,0.00,,SKC,0.02,VWS V14.01,2013-01-07 01:04:00,
2013-01-06 20:05:00,29.0,24.8,29.93,NW,316,0.0,0.0,84,0.00,,SKC,0.02,VWS V14.01,2013-01-07 01:05:00,
2013-01-06 20:09:00,29.0,24.8,29.93,NW,313,0.0,0.0,84,0.00,,SKC,0.02,VWS V14.01,2013-01-07 01:09:00,
2013-01-06 20:10:00,29.0,24.8,29.93,NW,313,0.0,0.0,84,0.00,,SKC,0.02,VWS V14.01,2013-01-07 01:10:00,
2013-01-06 20:14:00,29.0,24.8,29.93,NW,315,0.0,0.0,84,0.00,,SKC,0.02,VWS V14.01,2013-01-07 01:14:00,
2013-01-06 20:15:00,29.0,24.8,29.93,NW,312,0.0,0.0,84,0.00,,SKC,0.02,VWS V14.01,2013-01-07 01:15:00,
2013-01-06 20:19:00,29.0,24.8,29.93,NW,312,0.0,0.0,84,0.00,,SKC,0.02,VWS V14.01,2013-01-07 01:19:00,
2013-01-06 20:20:00,29.0,24.8,29.93,NW,313,0.0,0.0,84,0.00,,SKC,0.02,VWS V14.01,2013-01-07 01:20:00,
2013-01-06 20:21:00,29.0,24.8,29.93,NW,312,0.0,0.0,84,0.00,,SKC,0.02,VWS V14.01,2013-01-07 01:21:00,
2013-01-06 20:24:00,29.0,24.8,29.93,NW,313,0.0,0.0,84,0.00,,SKC,0.02,VWS V14.01,2013-01-07 01:24:00,
2013-01-06 20:25:00,29.0,24.8,29.93,NW,311,0.0,0.0,84,0.00,,SKC,0.02,VWS V14.01,2013-01-07 01:25:00,
2013-01-06 20:26:00,28.8,24.6,29.93,NW,312,0.0,0.0,84,0.00,,SKC,0.02,VWS V14.01,2013-01-07 01:26:00,
2013-01-06 20:29:00,28.8,24.6,29.93,NW,311,0.0,0.0,84,0.00,,SKC,0.02,VWS V14.01,2013-01-07 01:29:00,
2013-01-06 20:30:00,28.8,24.6,29.93,NW,311,0.0,0.0,84,0.00,,SKC,0.02,VWS V14.01,2013-01-07 01:30:00,
2013-01-06 20:31:00,28.8,24.6,29.93,NW,313,0.0,0.0,84,0.00,,SKC,0.02,VWS V14.01,2013-01-07 01:31:00,
2013-01-06 20:34:00,28.8,24.6,29.93,NW,313,0.0,0.0,84,0.00,,SKC,0.02,VWS V14.01,2013-01-07 01:34:00,
2013-01-06 20:35:00,28.8,24.6,29.93,NW,312,0.0,0.0,84,0.00,,SKC,0.02,VWS V14.01,2013-01-07 01:35:00,
2013-01-06 20:36:00,28.8,24.6,29.93,NW,312,0.0,0.0,84,0.00,,SKC,0.02,VWS V14.01,2013-01-07 01:36:00,
2013-01-06 20:37:00,28.8,24.6,29.93,NW,311,0.0,0.0,84,0.00,,SKC,0.02,VWS V14.01,2013-01-07 01:37:00,
2013-01-06 20:39:00,28.8,24.6,29.93,NW,311,0.0,0.0,84,0.00,,SKC,0.02,VWS V14.01,2013-01-07 01:39:00,
2013-01-06 20:40:00,28.8,24.6,29.93,NW,313,0.0,0.0,84,0.00,,SKC,0.02,VWS V14.01,2013-01-07 01:40:00,
2013-01-06 20:42:00,28.8,24.6,29.93,NW,313,0.0,0.0,84,0.00,,SKC,0.02,VWS V14.01,2013-01-07 01:42:00,
2013-01-06 20:44:00,28.7,24.5,29.93,NW,313,0.0,0.0,84,0.00,,SKC,0.02,VWS V14.01,2013-01-07 01:44:00,
2013-01-06 20:45:00,28.7,24.5,29.93,NW,313,0.0,0.0,84,0.00,,SKC,0.02,VWS V14.01,2013-01-07 01:45:00,
2013-01-06 20:46:00,28.7,24.5,29.93,NW,312,0.0,0.0,84,0.00,,SKC,0.02,VWS V14.01,2013-01-07 01:46:00,
2013-01-06 20:47:00,28.7,24.5,29.93,NW,313,0.0,0.0,84,0.00,,SKC,0.02,VWS V14.01,2013-01-07 01:47:00,
2013-01-06 20:49:00,28.7,24.8,29.93,NW,313,0.0,0.0,85,0.00,,SKC,0.02,VWS V14.01,2013-01-07 01:49:00,
2013-01-06 20:50:00,28.7,24.8,29.93,NW,311,0.0,0.0,85,0.00,,SKC,0.02,VWS V14.01,2013-01-07 01:50:00,
2013-01-06 20:51:00,28.8,24.9,29.93,NW,311,0.0,0.0,85,0.00,,SKC,0.02,VWS V14.01,2013-01-07 01:51:00,
2013-01-06 20:52:00,28.8,24.9,29.93,NW,311,0.0,0.0,85,0.00,,SKC,0.02,VWS V14.01,2013-01-07 01:52:00,
2013-01-06 20:53:00,28.8,24.9,29.93,NW,313,0.0,0.0,85,0.00,,SKC,0.02,VWS V14.01,2013-01-07 01:53:00,
2013-01-06 20:54:00,28.8,24.9,29.93,NW,312,0.0,0.0,85,0.00,,SKC,0.02,VWS V14.01,2013-01-07 01:54:00,
2013-01-06 20:55:00,28.8,24.9,29.93,NW,312,0.0,0.0,85,0.00,,SKC,0.02,VWS V14.01,2013-01-07 01:55:00,
2013-01-06 20:56:00,29.0,25.1,29.93,NW,313,0.0,0.0,85,0.00,,SKC,0.02,VWS V14.01,2013-01-07 01:56:00,
2013-01-06 20:57:00,29.0,25.1,29.93,NW,311,0.0,0.0,85,0.00,,SKC,0.02,VWS V14.01,2013-01-07 01:57:00,
2013-01-06 20:58:00,29.0,25.1,29.93,NW,313,0.0,0.0,85,0.00,,SKC,0.02,VWS V14.01,2013-01-07 01:58:00,
2013-01-06 21:00:00,29.0,25.1,29.93,NW,313,0.0,0.0,85,0.00,,SKC,0.02,VWS V14.01,2013-01-07 02:00:00,
2013-01-06 21:01:00,29.0,25.1,29.93,NW,313,0.0,0.0,85,0.00,,SKC,0.02,VWS V14.01,2013-01-07 02:01:00,
2013-01-06 21:02:00,29.0,25.1,29.93,NW,312,0.0,0.0,85,0.00,,SKC,0.02,VWS V14.01,2013-01-07 02:02:00,
2013-01-06 21:04:00,29.0,25.1,29.93,NW,313,0.0,0.0,85,0.00,,SKC,0.02,VWS V14.01,2013-01-07 02:04:00,
2013-01-06 21:05:00,29.0,25.1,29.93,NW,313,0.0,0.0,85,0.00,,SKC,0.02,VWS V14.01,2013-01-07 02:05:00,
2013-01-06 21:06:00,29.0,25.1,29.93,NW,313,0.0,0.0,85,0.00,,SKC,0.02,VWS V14.01,2013-01-07 02:06:00,
2013-01-06 21:08:00,29.0,25.1,29.93,NW,313,0.0,0.0,85,0.00,,SKC,0.02,VWS V14.01,2013-01-07 02:08:00,
2013-01-06 21:09:00,29.0,25.1,29.93,NW,313,0.0,0.0,85,0.00,,SKC,0.02,VWS V14.01,2013-01-07 02:09:00,
2013-01-06 21:10:00,29.0,25.1,29.93,NW,315,0.0,0.0,85,0.00,,SKC,0.02,VWS V14.01,2013-01-07 02:10:00,
2013-01-06 21:12:00,29.0,25.1,29.93,NW,312,0.0,0.0,85,0.00,,SKC,0.02,VWS V14.01,2013-01-07 02:12:00,
2013-01-06 21:13:00,29.0,25.1,29.93,NW,313,0.0,0.0,85,0.00,,SKC,0.02,VWS V14.01,2013-01-07 02:13:00,
2013-01-06 21:14:00,29.0,25.1,29.93,NW,313,0.0,0.0,85,0.00,,SKC,0.02,VWS V14.01,2013-01-07 02:14:00,
2013-01-06 21:15:00,29.0,25.1,29.93,NW,312,0.0,0.0,85,0.00,,SKC,0.02,VWS V14.01,2013-01-07 02:15:00,
2013-01-06 21:17:00,29.0,25.1,29.93,NW,311,0.0,0.0,85,0.00,,SKC,0.02,VWS V14.01,2013-01-07 02:17:00,
2013-01-06 21:18:00,29.0,25.1,29.93,NW,313,0.0,0.0,85,0.00,,SKC,0.02,VWS V14.01,2013-01-07 02:18:00,
2013-01-06 21:19:00,29.0,25.1,29.93,NW,311,0.0,0.0,85,0.00,,SKC,0.02,VWS V14.01,2013-01-07 02:19:00,
2013-01-06 21:20:00,29.0,25.1,29.93,NW,311,0.0,0.0,85,0.00,,SKC,0.02,VWS V14.01,2013-01-07 02:20:00,
2013-01-06 21:22:00,29.0,25.1,29.93,NW,313,0.0,0.0,85,0.00,,SKC,0.02,VWS V14.01,2013-01-07 02:22:00,
2013-01-06 21:23:00,29.0,25.1,29.93,NW,313,0.0,0.0,85,0.00,,SKC,0.02,VWS V14.01,2013-01-07 02:23:00,
2013-01-06 21:25:00,29.0,25.1,29.93,NW,311,0.0,0.0,85,0.00,,SKC,0.02,VWS V14.01,2013-01-07 02:25:00,
2013-01-06 21:27:00,28.8,24.9,29.93,NW,312,0.0,0.0,85,0.00,,SKC,0.02,VWS V14.01,2013-01-07 02:27:00,
2013-01-06 21:28:00,28.8,24.9,29.93,NW,311,0.0,0.0,85,0.00,,SKC,0.02,VWS V14.01,2013-01-07 02:28:00,
2013-01-06 21:29:00,28.8,24.9,29.93,NW,311,0.0,0.0,85,0.00,,SKC,0.02,VWS V14.01,2013-01-07 02:29:00,
2013-01-06 21:30:00,28.8,24.9,29.93,NW,311,0.0,0.0,85,0.00,,SKC,0.02,VWS V14.01,2013-01-07 02:30:00,
2013-01-06 21:31:00,28.8,24.9,29.93,NW,313,0.0,0.0,85,0.00,,SKC,0.02,VWS V14.01,2013-01-07 02:31:00,
2013-01-06 21:32:00,28.8,24.9,29.93,NW,311,0.0,0.0,85,0.00,,SKC,0.02,VWS V14.01,2013-01-07 02:32:00,
2013-01-06 21:33:00,28.7,24.8,29.93,NW,313,0.0,0.0,85,0.00,,SKC,0.02,VWS V14.01,2013-01-07 02:33:00,
2013-01-06 21:34:00,28.7,24.8,29.93,NW,311,0.0,0.0,85,0.00,,SKC,0.02,VWS V14.01,2013-01-07 02:34:00,
2013-01-06 21:35:00,28.7,24.8,29.93,NW,311,0.0,0.0,85,0.00,,SKC,0.02,VWS V14.01,2013-01-07 02:35:00,
2013-01-06 21:37:00,28.7,24.8,29.93,NW,311,0.0,0.0,85,0.00,,SKC,0.02,VWS V14.01,2013-01-07 02:37:00,
2013-01-06 21:39:00,28.5,24.6,29.93,NW,312,0.0,0.0,85,0.00,,SKC,0.02,VWS V14.01,2013-01-07 02:39:00,
2013-01-06 21:40:00,28.5,24.6,29.93,NW,313,0.0,0.0,85,0.00,,SKC,0.02,VWS V14.01,2013-01-07 02:40:00,
2013-01-06 21:42:00,28.4,24.5,29.93,NW,311,0.0,0.0,85,0.00,,SKC,0.02,VWS V14.01,2013-01-07 02:42:00,
2013-01-06 21:43:00,28.4,24.5,29.93,NW,316,0.0,0.0,85,0.00,,SKC,0.02,VWS V14.01,2013-01-07 02:43:00,
2013-01-06 21:45:00,28.4,24.5,29.93,NW,311,0.0,0.0,85,0.00,,SKC,0.02,VWS V14.01,2013-01-07 02:45:00,
2013-01-06 21:47:00,28.2,24.3,29.93,NW,315,0.0,0.0,85,0.00,,SKC,0.02,VWS V14.01,2013-01-07 02:47:00,
2013-01-06 21:48:00,28.2,24.3,29.93,NW,311,0.0,0.0,85,0.00,,SKC,0.02,VWS V14.01,2013-01-07 02:48:00,
2013-01-06 21:50:00,28.1,24.2,29.93,NW,313,0.0,0.0,85,0.00,,SKC,0.02,VWS V14.01,2013-01-07 02:50:00,
2013-01-06 21:52:00,28.1,24.2,29.93,NW,309,0.0,0.0,85,0.00,,SKC,0.02,VWS V14.01,2013-01-07 02:52:00,
2013-01-06 21:53:00,28.1,24.2,29.93,NW,313,0.0,0.0,85,0.00,,SKC,0.02,VWS V14.01,2013-01-07 02:53:00,
2013-01-06 21:55:00,27.9,24.3,29.93,NW,311,0.0,0.0,86,0.00,,SKC,0.02,VWS V14.01,2013-01-07 02:55:00,
2013-01-06 21:57:00,27.9,24.3,29.93,NW,311,0.0,0.0,86,0.00,,SKC,0.02,VWS V14.01,2013-01-07 02:57:00,
2013-01-06 21:58:00,27.8,24.2,29.93,NW,311,0.0,0.0,86,0.00,,SKC,0.02,VWS V14.01,2013-01-07 02:58:00,
2013-01-06 22:00:00,27.8,24.2,29.93,NW,312,0.0,0.0,86,0.00,,SKC,0.02,VWS V14.01,2013-01-07 03:00:00,
2013-01-06 22:01:00,27.8,24.2,29.93,NW,311,0.0,0.0,86,0.00,,SKC,0.02,VWS V14.01,2013-01-07 03:01:00,
2013-01-06 22:02:00,27.6,24.0,29.93,NW,313,0.0,0.0,86,0.00,,SKC,0.02,VWS V14.01,2013-01-07 03:02:00,
2013-01-06 22:04:00,27.6,24.0,29.93,NW,313,0.0,0.0,86,0.00,,SKC,0.02,VWS V14.01,2013-01-07 03:04:00,
2013-01-06 22:05:00,27.5,23.9,29.93,NW,311,0.0,0.0,86,0.00,,SKC,0.02,VWS V14.01,2013-01-07 03:05:00,
2013-01-06 22:06:00,27.5,23.9,29.93,NW,312,0.0,0.0,86,0.00,,SKC,0.02,VWS V14.01,2013-01-07 03:06:00,
2013-01-06 22:08:00,27.3,23.7,29.93,NW,313,0.0,0.0,86,0.00,,SKC,0.02,VWS V14.01,2013-01-07 03:08:00,
2013-01-06 22:09:00,27.3,23.7,29.93,NW,311,0.0,0.0,86,0.00,,SKC,0.02,VWS V14.01,2013-01-07 03:09:00,
2013-01-06 22:10:00,27.3,23.7,29.93,NW,312,0.0,0.0,86,0.00,,SKC,0.02,VWS V14.01,2013-01-07 03:10:00,
2013-01-06 22:11:00,27.3,23.7,29.93,NW,309,0.0,0.0,86,0.00,,SKC,0.02,VWS V14.01,2013-01-07 03:11:00,
2013-01-06 22:13:00,27.3,23.7,29.93,NW,312,0.0,0.0,86,0.00,,SKC,0.02,VWS V14.01,2013-01-07 03:13:00,
2013-01-06 22:14:00,27.2,23.6,29.93,NW,311,0.0,0.0,86,0.00,,SKC,0.02,VWS V14.01,2013-01-07 03:14:00,
2013-01-06 22:15:00,27.2,23.6,29.93,NW,312,0.0,0.0,86,0.00,,SKC,0.02,VWS V14.01,2013-01-07 03:15:00,
2013-01-06 22:16:00,27.2,23.6,29.93,NW,311,0.0,0.0,86,0.00,,SKC,0.02,VWS V14.01,2013-01-07 03:16:00,
2013-01-06 22:18:00,27.2,23.9,29.93,NW,311,0.0,0.0,87,0.00,,SKC,0.02,VWS V14.01,2013-01-07 03:18:00,
2013-01-06 22:19:00,27.2,23.9,29.93,NW,311,0.0,0.0,87,0.00,,SKC,0.02,VWS V14.01,2013-01-07 03:19:00,
2013-01-06 22:20:00,27.2,23.9,29.93,NW,311,0.0,0.0,87,0.00,,SKC,0.02,VWS V14.01,2013-01-07 03:20:00,
2013-01-06 22:21:00,27.2,23.9,29.93,NW,311,0.0,0.0,87,0.00,,SKC,0.02,VWS V14.01,2013-01-07 03:21:00,
2013-01-06 22:23:00,27.0,23.6,29.93,NW,311,0.0,0.0,87,0.00,,SKC,0.02,VWS V14.01,2013-01-07 03:23:00,
2013-01-06 22:24:00,27.0,23.6,29.93,NW,311,0.0,0.0,87,0.00,,SKC,0.02,VWS V14.01,2013-01-07 03:24:00,
2013-01-06 22:25:00,27.0,23.6,29.93,NW,311,0.0,0.0,87,0.00,,SKC,0.02,VWS V14.01,2013-01-07 03:25:00,
2013-01-06 22:26:00,27.0,23.6,29.93,NW,311,0.0,0.0,87,0.00,,SKC,0.02,VWS V14.01,2013-01-07 03:26:00,
2013-01-06 22:28:00,27.0,23.6,29.93,NW,311,0.0,0.0,87,0.00,,SKC,0.02,VWS V14.01,2013-01-07 03:28:00,
2013-01-06 22:29:00,27.0,23.6,29.93,NW,312,0.0,0.0,87,0.00,,SKC,0.02,VWS V14.01,2013-01-07 03:29:00,
2013-01-06 22:30:00,27.0,23.6,29.93,NW,311,0.0,0.0,87,0.00,,SKC,0.02,VWS V14.01,2013-01-07 03:30:00,
2013-01-06 22:31:00,27.0,23.6,29.93,NW,311,0.0,0.0,87,0.00,,SKC,0.02,VWS V14.01,2013-01-07 03:31:00,
2013-01-06 22:32:00,27.0,23.6,29.93,NW,311,0.0,0.0,87,0.00,,SKC,0.02,VWS V14.01,2013-01-07 03:32:00,
2013-01-06 22:34:00,27.0,23.6,29.93,NW,311,0.0,0.0,87,0.00,,SKC,0.02,VWS V14.01,2013-01-07 03:34:00,
2013-01-06 22:35:00,26.9,23.6,29.93,NW,311,0.0,0.0,87,0.00,,SKC,0.02,VWS V14.01,2013-01-07 03:35:00,
2013-01-06 22:37:00,26.9,23.6,29.93,NW,311,0.0,0.0,87,0.00,,SKC,0.02,VWS V14.01,2013-01-07 03:37:00,
2013-01-06 22:39:00,26.9,23.6,29.93,NW,312,0.0,0.0,87,0.00,,SKC,0.02,VWS V14.01,2013-01-07 03:39:00,
2013-01-06 22:40:00,26.9,23.6,29.93,NW,311,0.0,0.0,87,0.00,,SKC,0.02,VWS V14.01,2013-01-07 03:40:00,
2013-01-06 22:42:00,26.9,23.8,29.93,NW,311,0.0,0.0,88,0.00,,SKC,0.02,VWS V14.01,2013-01-07 03:42:00,
2013-01-06 22:44:00,26.9,23.8,29.93,NW,311,0.0,0.0,88,0.00,,SKC,0.02,VWS V14.01,2013-01-07 03:44:00,
2013-01-06 22:45:00,26.9,23.8,29.93,NW,311,0.0,0.0,88,0.00,,SKC,0.02,VWS V14.01,2013-01-07 03:45:00,
2013-01-06 22:47:00,26.7,23.6,29.93,NW,311,0.0,0.0,88,0.00,,SKC,0.02,VWS V14.01,2013-01-07 03:47:00,
2013-01-06 22:49:00,26.7,23.6,29.93,NW,312,0.0,0.0,88,0.00,,SKC,0.02,VWS V14.01,2013-01-07 03:49:00,
2013-01-06 22:50:00,26.7,23.6,29.93,NW,311,0.0,0.0,88,0.00,,SKC,0.02,VWS V14.01,2013-01-07 03:50:00,
2013-01-06 22:53:00,26.7,23.6,29.93,NW,311,0.0,0.0,88,0.00,,SKC,0.02,VWS V14.01,2013-01-07 03:53:00,
2013-01-06 22:55:00,26.6,23.5,29.93,NW,311,0.0,0.0,88,0.00,,SKC,0.02,VWS V14.01,2013-01-07 03:55:00,
2013-01-06 22:58:00,26.6,23.5,29.93,NW,312,0.0,0.0,88,0.00,,SKC,0.02,VWS V14.01,2013-01-07 03:58:00,
2013-01-06 23:00:00,26.6,23.5,29.93,NW,311,0.0,0.0,88,0.00,,SKC,0.02,VWS V14.01,2013-01-07 04:00:00,
2013-01-06 23:03:00,26.4,23.3,29.93,NW,311,0.0,0.0,88,0.00,,SKC,0.02,VWS V14.01,2013-01-07 04:03:00,
2013-01-06 23:05:00,26.3,23.2,29.93,NW,311,0.0,0.0,88,0.00,,SKC,0.02,VWS V14.01,2013-01-07 04:05:00,
2013-01-06 23:08:00,26.1,23.0,29.93,NW,312,0.0,0.0,88,0.00,,SKC,0.02,VWS V14.01,2013-01-07 04:08:00,
2013-01-06 23:09:00,26.1,23.0,29.93,NW,312,0.0,0.0,88,0.00,,SKC,0.02,VWS V14.01,2013-01-07 04:09:00,
2013-01-06 23:10:00,26.1,23.0,29.93,NW,311,0.0,0.0,88,0.00,,SKC,0.02,VWS V14.01,2013-01-07 04:10:00,
2013-01-06 23:13:00,26.1,23.3,29.93,NW,311,0.0,0.0,89,0.00,,SKC,0.02,VWS V14.01,2013-01-07 04:13:00,
2013-01-06 23:14:00,26.3,23.5,29.93,NW,315,0.0,0.0,89,0.00,,SKC,0.02,VWS V14.01,2013-01-07 04:14:00,
2013-01-06 23:15:00,26.3,23.5,29.93,NW,311,0.0,0.0,89,0.00,,SKC,0.02,VWS V14.01,2013-01-07 04:15:00,
2013-01-06 23:16:00,26.3,23.5,29.93,NW,312,0.0,0.0,89,0.00,,SKC,0.02,VWS V14.01,2013-01-07 04:16:00,
2013-01-06 23:18:00,26.3,23.5,29.93,NW,311,0.0,0.0,89,0.00,,SKC,0.02,VWS V14.01,2013-01-07 04:18:00,
2013-01-06 23:19:00,26.3,23.5,29.93,NW,311,0.0,0.0,89,0.00,,SKC,0.02,VWS V14.01,2013-01-07 04:19:00,
2013-01-06 23:20:00,26.1,23.3,29.93,NW,311,0.0,0.0,89,0.00,,SKC,0.02,VWS V14.01,2013-01-07 04:20:00,
2013-01-06 23:22:00,26.1,23.3,29.93,NW,312,0.0,0.0,89,0.00,,SKC,0.02,VWS V14.01,2013-01-07 04:22:00,
2013-01-06 23:24:00,26.1,23.3,29.93,NW,312,0.0,0.0,89,0.00,,SKC,0.02,VWS V14.01,2013-01-07 04:24:00,
2013-01-06 23:25:00,26.1,23.3,29.93,NW,315,0.0,0.0,89,0.00,,SKC,0.02,VWS V14.01,2013-01-07 04:25:00,
2013-01-06 23:26:00,26.1,23.3,29.93,NW,312,0.0,0.0,89,0.00,,SKC,0.02,VWS V14.01,2013-01-07 04:26:00,
2013-01-06 23:27:00,26.0,23.2,29.93,NW,312,0.0,0.0,89,0.00,,SKC,0.02,VWS V14.01,2013-01-07 04:27:00,
2013-01-06 23:28:00,26.0,23.2,29.93,NW,312,0.0,0.0,89,0.00,,SKC,0.02,VWS V14.01,2013-01-07 04:28:00,
2013-01-06 23:30:00,26.0,23.2,29.93,NW,312,0.0,0.0,89,0.00,,SKC,0.02,VWS V14.01,2013-01-07 04:30:00,
2013-01-06 23:31:00,26.0,23.2,29.93,NW,312,0.0,0.0,89,0.00,,SKC,0.02,VWS V14.01,2013-01-07 04:31:00,
2013-01-06 23:32:00,26.0,23.2,29.93,NW,312,0.0,0.0,89,0.00,,SKC,0.02,VWS V14.01,2013-01-07 04:32:00,
2013-01-06 23:34:00,26.0,23.2,29.93,NW,312,0.0,0.0,89,0.00,,SKC,0.02,VWS V14.01,2013-01-07 04:34:00,
2013-01-06 23:35:00,25.8,23.0,29.93,NW,312,0.0,0.0,89,0.00,,SKC,0.02,VWS V14.01,2013-01-07 04:35:00,
2013-01-06 23:36:00,25.8,23.0,29.93,NW,311,0.0,0.0,89,0.00,,SKC,0.02,VWS V14.01,2013-01-07 04:36:00,
2013-01-06 23:38:00,25.8,23.0,29.93,NW,312,0.0,0.0,89,0.00,,SKC,0.02,VWS V14.01,2013-01-07 04:38:00,
2013-01-06 23:39:00,25.8,23.0,29.93,NW,312,0.0,0.0,89,0.00,,SKC,0.02,VWS V14.01,2013-01-07 04:39:00,
2013-01-06 23:40:00,25.8,23.0,29.93,NW,311,0.0,0.0,89,0.00,,SKC,0.02,VWS V14.01,2013-01-07 04:40:00,
2013-01-06 23:41:00,25.8,23.0,29.93,NW,311,0.0,0.0,89,0.00,,SKC,0.02,VWS V14.01,2013-01-07 04:41:00,
2013-01-06 23:43:00,25.8,23.0,29.93,NW,312,0.0,0.0,89,0.00,,SKC,0.02,VWS V14.01,2013-01-07 04:43:00,
2013-01-06 23:44:00,25.8,23.0,29.93,NW,311,0.0,0.0,89,0.00,,SKC,0.02,VWS V14.01,2013-01-07 04:44:00,
2013-01-06 23:45:00,25.8,23.0,29.93,NW,311,0.0,0.0,89,0.00,,SKC,0.02,VWS V14.01,2013-01-07 04:45:00,
2013-01-06 23:47:00,25.8,23.0,29.93,NW,311,0.0,0.0,89,0.00,,SKC,0.02,VWS V14.01,2013-01-07 04:47:00,
2013-01-06 23:48:00,25.8,23.0,29.93,NW,311,0.0,0.0,89,0.00,,SKC,0.02,VWS V14.01,2013-01-07 04:48:00,
2013-01-06 23:49:00,25.8,23.0,29.93,NW,312,0.0,0.0,89,0.00,,SKC,0.02,VWS V14.01,2013-01-07 04:49:00,
2013-01-06 23:50:00,25.8,23.0,29.93,NW,311,0.0,0.0,89,0.00,,SKC,0.02,VWS V14.01,2013-01-07 04:50:00,
2013-01-06 23:52:00,25.8,23.0,29.93,NW,311,0.0,0.0,89,0.00,,SKC,0.02,VWS V14.01,2013-01-07 04:52:00,
2013-01-06 23:53:00,25.8,23.0,29.93,NW,311,0.0,0.0,89,0.00,,SKC,0.02,VWS V14.01,2013-01-07 04:53:00,
2013-01-06 23:55:00,25.8,23.0,29.93,NW,313,0.0,0.0,89,0.00,,SKC,0.02,VWS V14.01,2013-01-07 04:55:00,
2013-01-06 23:57:00,25.8,23.0,29.93,NW,311,0.0,0.0,89,0.00,,SKC,0.02,VWS V14.01,2013-01-07 04:57:00,
2013-01-06 23:59:00,25.8,23.0,29.93,NW,311,0.0,0.0,89,0.00,,SKC,0.02,VWS V14.01,2013-01-07 04:59:00,